<?xml version="1.0" encoding="UTF-8" standalone="no" ?><gpx xmlns="http://www.topografix.com/GPX/1/1" xmlns:gpxx="http://www.garmin.com/xmlschemas/GpxExtensions/v3" xmlns:gpxtrkx="http://www.garmin.com/xmlschemas/TrackStatsExtension/v1" xmlns:wptx1="http://www.garmin.com/xmlschemas/WaypointExtension/v1" xmlns:gpxtpx="http://www.garmin.com/xmlschemas/TrackPointExtension/v1" creator="GPSMAP 65s" version="1.1" xmlns:xsi="http://www.w3.org/2001/XMLSchema-instance" xsi:schemaLocation="http://www.topografix.com/GPX/1/1 http://www.topografix.com/GPX/1/1/gpx.xsd http://www.garmin.com/xmlschemas/GpxExtensions/v3 http://www8.garmin.com/xmlschemas/GpxExtensionsv3.xsd http://www.garmin.com/xmlschemas/TrackStatsExtension/v1 http://www8.garmin.com/xmlschemas/TrackStatsExtension.xsd http://www.garmin.com/xmlschemas/WaypointExtension/v1 http://www8.garmin.com/xmlschemas/WaypointExtensionv1.xsd http://www.garmin.com/xmlschemas/TrackPointExtension/v1 http://www.garmin.com/xmlschemas/TrackPointExtensionv1.xsd"><metadata><link href="http://www.garmin.com"><text>Garmin International</text></link><time>2026-08-31T03:48:15Z</time></metadata><trk><name>2026-08-31ДУБР5:54</name><extensions><gpxx:TrackExtension><gpxx:DisplayColor>Red</gpxx:DisplayColor></gpxx:TrackExtension><gpxtrkx:TrackStatsExtension><gpxtrkx:Distance>9530.000</gpxtrkx:Distance><gpxtrkx:TotalElapsedTime>22026</gpxtrkx:TotalElapsedTime><gpxtrkx:MovingTime>7261</gpxtrkx:MovingTime><gpxtrkx:StoppedTime>14757</gpxtrkx:StoppedTime><gpxtrkx:MovingSpeed>1.313</gpxtrkx:MovingSpeed><gpxtrkx:MaxSpeed>2.936</gpxtrkx:MaxSpeed><gpxtrkx:MaxElevation>67.269</gpxtrkx:MaxElevation><gpxtrkx:MinElevation>47.861</gpxtrkx:MinElevation><gpxtrkx:Ascent>41.000</gpxtrkx:Ascent><gpxtrkx:Descent>32.871</gpxtrkx:Descent><gpxtrkx:AvgAscentRate>0.006</gpxtrkx:AvgAscentRate><gpxtrkx:MaxAscentRate>0.031</gpxtrkx:MaxAscentRate><gpxtrkx:AvgDescentRate>0.004</gpxtrkx:AvgDescentRate><gpxtrkx:MaxDescentRate>-0.033</gpxtrkx:MaxDescentRate></gpxtrkx:TrackStatsExtension></extensions><trkseg><trkpt lat="59.4808379374" lon="31.0216371249"><ele>52.42</ele><time>2026-08-30T21:41:09Z</time></trkpt><trkpt lat="59.4808400329" lon="31.0216384660"><ele>52.42</ele><time>2026-08-30T21:41:10Z</time></trkpt><trkpt lat="59.4808488339" lon="31.0216408968"><ele>50.68</ele><time>2026-08-30T21:41:14Z</time></trkpt><trkpt lat="59.4808349200" lon="31.0216063634"><ele>51.36</ele><time>2026-08-30T21:41:33Z</time></trkpt><trkpt lat="59.4808449782" lon="31.0215433314"><ele>51.59</ele><time>2026-08-30T21:42:19Z</time></trkpt><trkpt lat="59.4808601495" lon="31.0215626936"><ele>51.91</ele><time>2026-08-30T21:42:44Z</time></trkpt><trkpt lat="59.4808514323" lon="31.0215958860"><ele>51.48</ele><time>2026-08-30T21:43:08Z</time></trkpt><trkpt lat="59.4808315672" lon="31.0215858277"><ele>51.63</ele><time>2026-08-30T21:44:00Z</time></trkpt><trkpt lat="59.4808126241" lon="31.0215632804"><ele>51.84</ele><time>2026-08-30T21:44:38Z</time></trkpt><trkpt lat="59.4808063377" lon="31.0215567425"><ele>51.83</ele><time>2026-08-30T21:45:27Z</time></trkpt><trkpt lat="59.4808157254" lon="31.0215610173"><ele>52.25</ele><time>2026-08-30T21:46:10Z</time></trkpt><trkpt lat="59.4808206707" lon="31.0215664655"><ele>50.88</ele><time>2026-08-30T21:46:13Z</time></trkpt><trkpt lat="59.4808221795" lon="31.0216108896"><ele>51.85</ele><time>2026-08-30T21:46:48Z</time></trkpt><trkpt lat="59.4808246940" lon="31.0215776972"><ele>52.11</ele><time>2026-08-30T21:47:10Z</time></trkpt><trkpt lat="59.4808795955" lon="31.0215365421"><ele>52.17</ele><time>2026-08-30T21:47:45Z</time></trkpt><trkpt lat="59.4809134584" lon="31.0215721652"><ele>52.20</ele><time>2026-08-30T21:48:30Z</time></trkpt><trkpt lat="59.4809679408" lon="31.0216058604"><ele>52.02</ele><time>2026-08-30T21:48:59Z</time></trkpt><trkpt lat="59.4810175616" lon="31.0216141585"><ele>52.08</ele><time>2026-08-30T21:49:46Z</time></trkpt><trkpt lat="59.4809446391" lon="31.0215981491"><ele>52.31</ele><time>2026-08-30T21:50:30Z</time></trkpt><trkpt lat="59.4808960240" lon="31.0215744283"><ele>52.14</ele><time>2026-08-30T21:50:54Z</time></trkpt><trkpt lat="59.4808527734" lon="31.0215745959"><ele>52.05</ele><time>2026-08-30T21:51:25Z</time></trkpt><trkpt lat="59.4808487501" lon="31.0215671360"><ele>51.98</ele><time>2026-08-30T21:51:57Z</time></trkpt><trkpt lat="59.4807577226" lon="31.0215105582"><ele>52.16</ele><time>2026-08-30T21:52:33Z</time></trkpt><trkpt lat="59.4807780068" lon="31.0215034336"><ele>52.27</ele><time>2026-08-30T21:53:01Z</time></trkpt><trkpt lat="59.4808254484" lon="31.0215565749"><ele>52.87</ele><time>2026-08-30T21:53:21Z</time></trkpt><trkpt lat="59.4808397815" lon="31.0216015857"><ele>52.77</ele><time>2026-08-30T21:53:44Z</time></trkpt><trkpt lat="59.4808477443" lon="31.0215601791"><ele>52.61</ele><time>2026-08-30T21:54:18Z</time></trkpt><trkpt lat="59.4808351714" lon="31.0215409845"><ele>52.86</ele><time>2026-08-30T21:54:45Z</time></trkpt><trkpt lat="59.4808829483" lon="31.0216176789"><ele>52.72</ele><time>2026-08-30T21:55:23Z</time></trkpt><trkpt lat="59.4808557909" lon="31.0215605982"><ele>53.10</ele><time>2026-08-30T21:56:02Z</time></trkpt><trkpt lat="59.4808418769" lon="31.0215586703"><ele>52.85</ele><time>2026-08-30T21:56:28Z</time></trkpt><trkpt lat="59.4808323216" lon="31.0215508752"><ele>52.77</ele><time>2026-08-30T21:56:50Z</time></trkpt><trkpt lat="59.4808377698" lon="31.0215452593"><ele>52.83</ele><time>2026-08-30T21:57:11Z</time></trkpt><trkpt lat="59.4808228500" lon="31.0214849934"><ele>53.07</ele><time>2026-08-30T21:57:33Z</time></trkpt><trkpt lat="59.4808705430" lon="31.0214570817"><ele>53.02</ele><time>2026-08-30T21:57:54Z</time></trkpt><trkpt lat="59.4808313996" lon="31.0214914475"><ele>53.18</ele><time>2026-08-30T21:58:12Z</time></trkpt><trkpt lat="59.4808959402" lon="31.0214157589"><ele>52.83</ele><time>2026-08-30T21:58:28Z</time></trkpt><trkpt lat="59.4809297193" lon="31.0213479493"><ele>52.92</ele><time>2026-08-30T21:58:34Z</time></trkpt><trkpt lat="59.4810422882" lon="31.0210560914"><ele>52.83</ele><time>2026-08-30T21:58:54Z</time></trkpt><trkpt lat="59.4811089244" lon="31.0209453665"><ele>52.64</ele><time>2026-08-30T21:59:12Z</time></trkpt><trkpt lat="59.4811473973" lon="31.0208744556"><ele>52.61</ele><time>2026-08-30T21:59:20Z</time></trkpt><trkpt lat="59.4811645802" lon="31.0208277684"><ele>52.34</ele><time>2026-08-30T21:59:36Z</time></trkpt><trkpt lat="59.4811350759" lon="31.0210479610"><ele>52.80</ele><time>2026-08-30T21:59:52Z</time></trkpt><trkpt lat="59.4812258519" lon="31.0211850889"><ele>52.72</ele><time>2026-08-30T22:00:12Z</time></trkpt><trkpt lat="59.4813153706" lon="31.0213571694"><ele>52.49</ele><time>2026-08-30T22:00:31Z</time></trkpt><trkpt lat="59.4813549332" lon="31.0214828979"><ele>51.60</ele><time>2026-08-30T22:00:40Z</time></trkpt><trkpt lat="59.4814706873" lon="31.0217321757"><ele>52.68</ele><time>2026-08-30T22:00:58Z</time></trkpt><trkpt lat="59.4815136865" lon="31.0218138993"><ele>52.68</ele><time>2026-08-30T22:01:04Z</time></trkpt><trkpt lat="59.4815392513" lon="31.0218672920"><ele>52.61</ele><time>2026-08-30T22:01:08Z</time></trkpt><trkpt lat="59.4815540873" lon="31.0218994785"><ele>52.67</ele><time>2026-08-30T22:01:10Z</time></trkpt><trkpt lat="59.4815797359" lon="31.0219639353"><ele>52.66</ele><time>2026-08-30T22:01:14Z</time></trkpt><trkpt lat="59.4816415943" lon="31.0220881552"><ele>52.67</ele><time>2026-08-30T22:01:28Z</time></trkpt><trkpt lat="59.4816979207" lon="31.0222434718"><ele>53.07</ele><time>2026-08-30T22:01:44Z</time></trkpt><trkpt lat="59.4817737769" lon="31.0224228445"><ele>52.67</ele><time>2026-08-30T22:01:55Z</time></trkpt><trkpt lat="59.4818393234" lon="31.0224646702"><ele>52.83</ele><time>2026-08-30T22:02:13Z</time></trkpt><trkpt lat="59.4818834960" lon="31.0224707890"><ele>52.93</ele><time>2026-08-30T22:02:42Z</time></trkpt><trkpt lat="59.4818838313" lon="31.0224827752"><ele>52.90</ele><time>2026-08-30T22:02:47Z</time></trkpt><trkpt lat="59.4818910398" lon="31.0225433763"><ele>52.76</ele><time>2026-08-30T22:02:51Z</time></trkpt><trkpt lat="59.4820441771" lon="31.0229233280"><ele>52.66</ele><time>2026-08-30T22:03:12Z</time></trkpt><trkpt lat="59.4821223803" lon="31.0230984259"><ele>52.74</ele><time>2026-08-30T22:03:22Z</time></trkpt><trkpt lat="59.4822078757" lon="31.0233314428"><ele>52.82</ele><time>2026-08-30T22:03:36Z</time></trkpt><trkpt lat="59.4822122343" lon="31.0233377293"><ele>52.83</ele><time>2026-08-30T22:03:37Z</time></trkpt><trkpt lat="59.4822619390" lon="31.0234211292"><ele>52.82</ele><time>2026-08-30T22:03:42Z</time></trkpt><trkpt lat="59.4823010825" lon="31.0234656371"><ele>50.98</ele><time>2026-08-30T22:03:46Z</time></trkpt><trkpt lat="59.4823720772" lon="31.0235713329"><ele>51.03</ele><time>2026-08-30T22:03:53Z</time></trkpt><trkpt lat="59.4824416470" lon="31.0237256438"><ele>54.06</ele><time>2026-08-30T22:04:02Z</time></trkpt><trkpt lat="59.4825268909" lon="31.0239003226"><ele>53.46</ele><time>2026-08-30T22:04:19Z</time></trkpt><trkpt lat="59.4825183414" lon="31.0239471775"><ele>53.49</ele><time>2026-08-30T22:05:03Z</time></trkpt><trkpt lat="59.4825224485" lon="31.0239750892"><ele>53.50</ele><time>2026-08-30T22:05:05Z</time></trkpt><trkpt lat="59.4825321715" lon="31.0240200162"><ele>53.52</ele><time>2026-08-30T22:05:07Z</time></trkpt><trkpt lat="59.4826839678" lon="31.0243012290"><ele>53.96</ele><time>2026-08-30T22:05:26Z</time></trkpt><trkpt lat="59.4827418867" lon="31.0245157219"><ele>54.05</ele><time>2026-08-30T22:05:38Z</time></trkpt><trkpt lat="59.4827570580" lon="31.0245388560"><ele>53.98</ele><time>2026-08-30T22:05:40Z</time></trkpt><trkpt lat="59.4828003924" lon="31.0245979484"><ele>54.12</ele><time>2026-08-30T22:05:45Z</time></trkpt><trkpt lat="59.4829340000" lon="31.0249500722"><ele>53.78</ele><time>2026-08-30T22:06:05Z</time></trkpt><trkpt lat="59.4829540327" lon="31.0250083264"><ele>53.29</ele><time>2026-08-30T22:06:08Z</time></trkpt><trkpt lat="59.4829704612" lon="31.0250715259"><ele>55.08</ele><time>2026-08-30T22:06:12Z</time></trkpt><trkpt lat="59.4829737302" lon="31.0251318756"><ele>55.08</ele><time>2026-08-30T22:06:27Z</time></trkpt><trkpt lat="59.4829568826" lon="31.0251705162"><ele>53.63</ele><time>2026-08-30T22:06:30Z</time></trkpt><trkpt lat="59.4829602353" lon="31.0252233222"><ele>53.72</ele><time>2026-08-30T22:06:40Z</time></trkpt><trkpt lat="59.4829465728" lon="31.0252820794"><ele>53.63</ele><time>2026-08-30T22:06:57Z</time></trkpt><trkpt lat="59.4829531945" lon="31.0252641421"><ele>53.61</ele><time>2026-08-30T22:07:03Z</time></trkpt><trkpt lat="59.4829861354" lon="31.0251829214"><ele>53.82</ele><time>2026-08-30T22:07:07Z</time></trkpt><trkpt lat="59.4830650929" lon="31.0251689237"><ele>53.74</ele><time>2026-08-30T22:07:26Z</time></trkpt><trkpt lat="59.4830656797" lon="31.0252041277"><ele>53.79</ele><time>2026-08-30T22:07:42Z</time></trkpt><trkpt lat="59.4830938429" lon="31.0252487194"><ele>53.82</ele><time>2026-08-30T22:07:45Z</time></trkpt><trkpt lat="59.4832115248" lon="31.0255175270"><ele>53.67</ele><time>2026-08-30T22:07:59Z</time></trkpt><trkpt lat="59.4833059888" lon="31.0257193632"><ele>54.94</ele><time>2026-08-30T22:08:11Z</time></trkpt><trkpt lat="59.4833848625" lon="31.0258804634"><ele>53.63</ele><time>2026-08-30T22:08:22Z</time></trkpt><trkpt lat="59.4833908975" lon="31.0258964729"><ele>53.64</ele><time>2026-08-30T22:08:23Z</time></trkpt><trkpt lat="59.4834792428" lon="31.0261506960"><ele>53.52</ele><time>2026-08-30T22:08:38Z</time></trkpt><trkpt lat="59.4835857768" lon="31.0263598245"><ele>53.44</ele><time>2026-08-30T22:08:52Z</time></trkpt><trkpt lat="59.4835934881" lon="31.0263797734"><ele>53.36</ele><time>2026-08-30T22:08:53Z</time></trkpt><trkpt lat="59.4836098328" lon="31.0264161509"><ele>53.11</ele><time>2026-08-30T22:08:55Z</time></trkpt><trkpt lat="59.4836631417" lon="31.0265360959"><ele>53.36</ele><time>2026-08-30T22:09:03Z</time></trkpt><trkpt lat="59.4837009441" lon="31.0266290512"><ele>53.30</ele><time>2026-08-30T22:09:08Z</time></trkpt><trkpt lat="59.4837442786" lon="31.0267035663"><ele>53.42</ele><time>2026-08-30T22:09:27Z</time></trkpt><trkpt lat="59.4837633893" lon="31.0267594736"><ele>53.48</ele><time>2026-08-30T22:10:01Z</time></trkpt><trkpt lat="59.4838098250" lon="31.0268997867"><ele>53.35</ele><time>2026-08-30T22:10:09Z</time></trkpt><trkpt lat="59.4839017745" lon="31.0270228330"><ele>53.59</ele><time>2026-08-30T22:10:18Z</time></trkpt><trkpt lat="59.4839519821" lon="31.0271657445"><ele>53.62</ele><time>2026-08-30T22:10:26Z</time></trkpt><trkpt lat="59.4840204623" lon="31.0272831749"><ele>53.22</ele><time>2026-08-30T22:10:46Z</time></trkpt><trkpt lat="59.4840403274" lon="31.0273618810"><ele>53.86</ele><time>2026-08-30T22:11:02Z</time></trkpt><trkpt lat="59.4840529840" lon="31.0273861885"><ele>53.76</ele><time>2026-08-30T22:11:04Z</time></trkpt><trkpt lat="59.4841309357" lon="31.0275687464"><ele>54.03</ele><time>2026-08-30T22:11:17Z</time></trkpt><trkpt lat="59.4841499627" lon="31.0275969934"><ele>54.10</ele><time>2026-08-30T22:11:19Z</time></trkpt><trkpt lat="59.4841972366" lon="31.0277041979"><ele>54.06</ele><time>2026-08-30T22:11:25Z</time></trkpt><trkpt lat="59.4842236396" lon="31.0277576745"><ele>54.15</ele><time>2026-08-30T22:11:28Z</time></trkpt><trkpt lat="59.4842382241" lon="31.0277799703"><ele>54.15</ele><time>2026-08-30T22:11:30Z</time></trkpt><trkpt lat="59.4842867553" lon="31.0278950538"><ele>53.89</ele><time>2026-08-30T22:11:38Z</time></trkpt><trkpt lat="59.4843160920" lon="31.0279940441"><ele>53.82</ele><time>2026-08-30T22:11:43Z</time></trkpt><trkpt lat="59.4843787886" lon="31.0281420685"><ele>54.15</ele><time>2026-08-30T22:11:56Z</time></trkpt><trkpt lat="59.4844030961" lon="31.0281847324"><ele>54.09</ele><time>2026-08-30T22:11:59Z</time></trkpt><trkpt lat="59.4844897650" lon="31.0283557232"><ele>53.87</ele><time>2026-08-30T22:12:13Z</time></trkpt><trkpt lat="59.4845666271" lon="31.0285147280"><ele>53.92</ele><time>2026-08-30T22:12:29Z</time></trkpt><trkpt lat="59.4846834708" lon="31.0287457332"><ele>53.94</ele><time>2026-08-30T22:12:46Z</time></trkpt><trkpt lat="59.4847680442" lon="31.0288746469"><ele>53.63</ele><time>2026-08-30T22:12:58Z</time></trkpt><trkpt lat="59.4847949501" lon="31.0289559513"><ele>53.73</ele><time>2026-08-30T22:13:04Z</time></trkpt><trkpt lat="59.4848106243" lon="31.0289770737"><ele>53.61</ele><time>2026-08-30T22:13:06Z</time></trkpt><trkpt lat="59.4848497678" lon="31.0290484875"><ele>53.56</ele><time>2026-08-30T22:13:12Z</time></trkpt><trkpt lat="59.4848568924" lon="31.0290910676"><ele>50.07</ele><time>2026-08-30T22:13:14Z</time></trkpt><trkpt lat="59.4848625921" lon="31.0291071609"><ele>50.70</ele><time>2026-08-30T22:13:15Z</time></trkpt><trkpt lat="59.4848702196" lon="31.0291186441"><ele>54.11</ele><time>2026-08-30T22:13:16Z</time></trkpt><trkpt lat="59.4848860614" lon="31.0291427840"><ele>55.59</ele><time>2026-08-30T22:13:18Z</time></trkpt><trkpt lat="59.4849064294" lon="31.0291513335"><ele>53.21</ele><time>2026-08-30T22:13:21Z</time></trkpt><trkpt lat="59.4849174935" lon="31.0291015450"><ele>52.27</ele><time>2026-08-30T22:14:04Z</time></trkpt><trkpt lat="59.4849356823" lon="31.0290468950"><ele>52.13</ele><time>2026-08-30T22:14:27Z</time></trkpt><trkpt lat="59.4849685393" lon="31.0292372480"><ele>53.29</ele><time>2026-08-30T22:14:41Z</time></trkpt><trkpt lat="59.4850142207" lon="31.0294302832"><ele>53.28</ele><time>2026-08-30T22:14:56Z</time></trkpt><trkpt lat="59.4850872271" lon="31.0295769665"><ele>54.91</ele><time>2026-08-30T22:15:07Z</time></trkpt><trkpt lat="59.4851225987" lon="31.0295297764"><ele>53.55</ele><time>2026-08-30T22:15:26Z</time></trkpt><trkpt lat="59.4851520192" lon="31.0296721850"><ele>53.49</ele><time>2026-08-30T22:15:47Z</time></trkpt><trkpt lat="59.4852209184" lon="31.0298201256"><ele>53.60</ele><time>2026-08-30T22:15:59Z</time></trkpt><trkpt lat="59.4853163883" lon="31.0300941300"><ele>53.83</ele><time>2026-08-30T22:16:17Z</time></trkpt><trkpt lat="59.4853478204" lon="31.0300977342"><ele>53.90</ele><time>2026-08-30T22:16:40Z</time></trkpt><trkpt lat="59.4853151310" lon="31.0301091336"><ele>53.48</ele><time>2026-08-30T22:17:26Z</time></trkpt><trkpt lat="59.4853138737" lon="31.0301146656"><ele>53.51</ele><time>2026-08-30T22:17:32Z</time></trkpt><trkpt lat="59.4852792565" lon="31.0302616842"><ele>53.13</ele><time>2026-08-30T22:17:49Z</time></trkpt><trkpt lat="59.4852732215" lon="31.0302181821"><ele>53.04</ele><time>2026-08-30T22:18:00Z</time></trkpt><trkpt lat="59.4853389356" lon="31.0301411524"><ele>53.54</ele><time>2026-08-30T22:18:11Z</time></trkpt><trkpt lat="59.4853768218" lon="31.0302060284"><ele>53.70</ele><time>2026-08-30T22:18:15Z</time></trkpt><trkpt lat="59.4854382612" lon="31.0303668771"><ele>53.62</ele><time>2026-08-30T22:18:25Z</time></trkpt><trkpt lat="59.4855049811" lon="31.0304567311"><ele>53.59</ele><time>2026-08-30T22:18:32Z</time></trkpt><trkpt lat="59.4855561946" lon="31.0305926856"><ele>53.55</ele><time>2026-08-30T22:18:39Z</time></trkpt><trkpt lat="59.4856214896" lon="31.0307447333"><ele>53.62</ele><time>2026-08-30T22:18:50Z</time></trkpt><trkpt lat="59.4856338948" lon="31.0308469925"><ele>53.53</ele><time>2026-08-30T22:18:57Z</time></trkpt><trkpt lat="59.4856788218" lon="31.0309277941"><ele>53.37</ele><time>2026-08-30T22:19:03Z</time></trkpt><trkpt lat="59.4857231621" lon="31.0309890658"><ele>53.49</ele><time>2026-08-30T22:19:08Z</time></trkpt><trkpt lat="59.4858301990" lon="31.0312021337"><ele>53.44</ele><time>2026-08-30T22:19:23Z</time></trkpt><trkpt lat="59.4858760480" lon="31.0312826838"><ele>53.43</ele><time>2026-08-30T22:19:42Z</time></trkpt><trkpt lat="59.4859678298" lon="31.0314887948"><ele>53.80</ele><time>2026-08-30T22:20:02Z</time></trkpt><trkpt lat="59.4860228989" lon="31.0316457879"><ele>53.94</ele><time>2026-08-30T22:20:19Z</time></trkpt><trkpt lat="59.4860377349" lon="31.0317047965"><ele>53.91</ele><time>2026-08-30T22:21:07Z</time></trkpt><trkpt lat="59.4861074723" lon="31.0317637213"><ele>53.95</ele><time>2026-08-30T22:21:15Z</time></trkpt><trkpt lat="59.4862327818" lon="31.0320714209"><ele>53.74</ele><time>2026-08-30T22:21:33Z</time></trkpt><trkpt lat="59.4862624537" lon="31.0321045294"><ele>53.71</ele><time>2026-08-30T22:21:39Z</time></trkpt><trkpt lat="59.4863298442" lon="31.0322719999"><ele>54.06</ele><time>2026-08-30T22:21:52Z</time></trkpt><trkpt lat="59.4863516372" lon="31.0323004983"><ele>53.67</ele><time>2026-08-30T22:21:56Z</time></trkpt><trkpt lat="59.4864227995" lon="31.0324040987"><ele>52.94</ele><time>2026-08-30T22:22:05Z</time></trkpt><trkpt lat="59.4864814728" lon="31.0325560626"><ele>53.70</ele><time>2026-08-30T22:22:16Z</time></trkpt><trkpt lat="59.4865304232" lon="31.0328094475"><ele>53.46</ele><time>2026-08-30T22:22:36Z</time></trkpt><trkpt lat="59.4865306746" lon="31.0327847209"><ele>53.27</ele><time>2026-08-30T22:23:04Z</time></trkpt><trkpt lat="59.4866352808" lon="31.0329428874"><ele>53.60</ele><time>2026-08-30T22:23:19Z</time></trkpt><trkpt lat="59.4866741728" lon="31.0330692865"><ele>53.53</ele><time>2026-08-30T22:23:26Z</time></trkpt><trkpt lat="59.4866965525" lon="31.0330942646"><ele>53.46</ele><time>2026-08-30T22:23:29Z</time></trkpt><trkpt lat="59.4867163338" lon="31.0331622418"><ele>53.49</ele><time>2026-08-30T22:23:58Z</time></trkpt><trkpt lat="59.4867153279" lon="31.0331359226"><ele>52.20</ele><time>2026-08-30T22:24:50Z</time></trkpt><trkpt lat="59.4867311697" lon="31.0331450589"><ele>52.61</ele><time>2026-08-30T22:26:15Z</time></trkpt><trkpt lat="59.4867181778" lon="31.0331460647"><ele>52.76</ele><time>2026-08-30T22:27:28Z</time></trkpt><trkpt lat="59.4867177587" lon="31.0331230983"><ele>53.23</ele><time>2026-08-30T22:28:52Z</time></trkpt><trkpt lat="59.4867109694" lon="31.0331221763"><ele>53.86</ele><time>2026-08-30T22:30:20Z</time></trkpt><trkpt lat="59.4867072813" lon="31.0331287980"><ele>54.42</ele><time>2026-08-30T22:31:38Z</time></trkpt><trkpt lat="59.4867063593" lon="31.0331263673"><ele>54.37</ele><time>2026-08-30T22:32:47Z</time></trkpt><trkpt lat="59.4867145736" lon="31.0332139581"><ele>54.61</ele><time>2026-08-30T22:33:19Z</time></trkpt><trkpt lat="59.4866947923" lon="31.0332479887"><ele>52.53</ele><time>2026-08-30T22:33:51Z</time></trkpt><trkpt lat="59.4866788667" lon="31.0332593881"><ele>55.05</ele><time>2026-08-30T22:34:13Z</time></trkpt><trkpt lat="59.4866993185" lon="31.0331889801"><ele>54.94</ele><time>2026-08-30T22:35:40Z</time></trkpt><trkpt lat="59.4867589977" lon="31.0331891477"><ele>57.54</ele><time>2026-08-30T22:36:34Z</time></trkpt><trkpt lat="59.4867116399" lon="31.0332190711"><ele>56.08</ele><time>2026-08-30T22:37:14Z</time></trkpt><trkpt lat="59.4866531342" lon="31.0332689434"><ele>55.55</ele><time>2026-08-30T22:37:44Z</time></trkpt><trkpt lat="59.4866228756" lon="31.0332728829"><ele>55.65</ele><time>2026-08-30T22:38:09Z</time></trkpt><trkpt lat="59.4866405614" lon="31.0332578793"><ele>55.57</ele><time>2026-08-30T22:38:33Z</time></trkpt><trkpt lat="59.4866531342" lon="31.0333109368"><ele>54.73</ele><time>2026-08-30T22:39:10Z</time></trkpt><trkpt lat="59.4865836482" lon="31.0333307181"><ele>55.50</ele><time>2026-08-30T22:39:53Z</time></trkpt><trkpt lat="59.4865945447" lon="31.0334047303"><ele>55.57</ele><time>2026-08-30T22:40:18Z</time></trkpt><trkpt lat="59.4866017532" lon="31.0332915746"><ele>55.23</ele><time>2026-08-30T22:40:47Z</time></trkpt><trkpt lat="59.4865907729" lon="31.0333642457"><ele>55.13</ele><time>2026-08-30T22:41:13Z</time></trkpt><trkpt lat="59.4865391403" lon="31.0336336400"><ele>55.14</ele><time>2026-08-30T22:41:31Z</time></trkpt><trkpt lat="59.4864746835" lon="31.0338622984"><ele>55.28</ele><time>2026-08-30T22:41:47Z</time></trkpt><trkpt lat="59.4864039402" lon="31.0341467801"><ele>55.04</ele><time>2026-08-30T22:42:03Z</time></trkpt><trkpt lat="59.4863366336" lon="31.0343852453"><ele>54.75</ele><time>2026-08-30T22:42:19Z</time></trkpt><trkpt lat="59.4862500485" lon="31.0346202739"><ele>54.80</ele><time>2026-08-30T22:42:34Z</time></trkpt><trkpt lat="59.4862476178" lon="31.0347576533"><ele>54.86</ele><time>2026-08-30T22:42:46Z</time></trkpt><trkpt lat="59.4862118270" lon="31.0349647701"><ele>54.93</ele><time>2026-08-30T22:43:03Z</time></trkpt><trkpt lat="59.4861842506" lon="31.0349797737"><ele>55.02</ele><time>2026-08-30T22:43:26Z</time></trkpt><trkpt lat="59.4861940574" lon="31.0349843837"><ele>54.88</ele><time>2026-08-30T22:44:06Z</time></trkpt><trkpt lat="59.4862361345" lon="31.0352053307"><ele>54.97</ele><time>2026-08-30T22:44:24Z</time></trkpt><trkpt lat="59.4861807302" lon="31.0353959352"><ele>54.97</ele><time>2026-08-30T22:44:38Z</time></trkpt><trkpt lat="59.4861527346" lon="31.0355340689"><ele>55.12</ele><time>2026-08-30T22:44:48Z</time></trkpt><trkpt lat="59.4861341268" lon="31.0357868671"><ele>55.10</ele><time>2026-08-30T22:45:02Z</time></trkpt><trkpt lat="59.4861114956" lon="31.0358783975"><ele>54.99</ele><time>2026-08-30T22:45:53Z</time></trkpt><trkpt lat="59.4860412553" lon="31.0360736959"><ele>54.78</ele><time>2026-08-30T22:46:10Z</time></trkpt><trkpt lat="59.4860507268" lon="31.0362112429"><ele>54.85</ele><time>2026-08-30T22:46:38Z</time></trkpt><trkpt lat="59.4860049617" lon="31.0364469420"><ele>54.79</ele><time>2026-08-30T22:46:56Z</time></trkpt><trkpt lat="59.4859341346" lon="31.0362920444"><ele>54.21</ele><time>2026-08-30T22:47:20Z</time></trkpt><trkpt lat="59.4859395828" lon="31.0360299423"><ele>53.98</ele><time>2026-08-30T22:47:36Z</time></trkpt><trkpt lat="59.4860069733" lon="31.0358614661"><ele>54.25</ele><time>2026-08-30T22:47:52Z</time></trkpt><trkpt lat="59.4860446919" lon="31.0356206540"><ele>54.30</ele><time>2026-08-30T22:48:08Z</time></trkpt><trkpt lat="59.4861016888" lon="31.0354038980"><ele>54.47</ele><time>2026-08-30T22:48:23Z</time></trkpt><trkpt lat="59.4860555883" lon="31.0352153890"><ele>54.27</ele><time>2026-08-30T22:48:38Z</time></trkpt><trkpt lat="59.4859727751" lon="31.0350183304"><ele>54.02</ele><time>2026-08-30T22:48:54Z</time></trkpt><trkpt lat="59.4859099947" lon="31.0348138958"><ele>52.93</ele><time>2026-08-30T22:49:10Z</time></trkpt><trkpt lat="59.4858111721" lon="31.0347812902"><ele>54.00</ele><time>2026-08-30T22:49:37Z</time></trkpt><trkpt lat="59.4857990183" lon="31.0347643588"><ele>53.83</ele><time>2026-08-30T22:50:32Z</time></trkpt><trkpt lat="59.4857561868" lon="31.0349709727"><ele>53.86</ele><time>2026-08-30T22:51:05Z</time></trkpt><trkpt lat="59.4856481440" lon="31.0352049954"><ele>53.87</ele><time>2026-08-30T22:51:21Z</time></trkpt><trkpt lat="59.4855022989" lon="31.0354406945"><ele>53.72</ele><time>2026-08-30T22:51:40Z</time></trkpt><trkpt lat="59.4854210783" lon="31.0356691852"><ele>53.95</ele><time>2026-08-30T22:51:56Z</time></trkpt><trkpt lat="59.4853083417" lon="31.0358374938"><ele>53.52</ele><time>2026-08-30T22:52:12Z</time></trkpt><trkpt lat="59.4851948507" lon="31.0360774677"><ele>53.46</ele><time>2026-08-30T22:52:29Z</time></trkpt><trkpt lat="59.4851169828" lon="31.0362353828"><ele>53.52</ele><time>2026-08-30T22:52:43Z</time></trkpt><trkpt lat="59.4851260353" lon="31.0362693295"><ele>53.54</ele><time>2026-08-30T22:53:03Z</time></trkpt><trkpt lat="59.4851574674" lon="31.0363519751"><ele>53.70</ele><time>2026-08-30T22:53:20Z</time></trkpt><trkpt lat="59.4851973653" lon="31.0364630353"><ele>53.57</ele><time>2026-08-30T22:53:43Z</time></trkpt><trkpt lat="59.4851577189" lon="31.0364739317"><ele>53.51</ele><time>2026-08-30T22:54:01Z</time></trkpt><trkpt lat="59.4851578865" lon="31.0364341177"><ele>53.65</ele><time>2026-08-30T22:54:22Z</time></trkpt><trkpt lat="59.4851049967" lon="31.0365685634"><ele>53.66</ele><time>2026-08-30T22:54:48Z</time></trkpt><trkpt lat="59.4850911666" lon="31.0365662165"><ele>48.69</ele><time>2026-08-30T22:55:13Z</time></trkpt><trkpt lat="59.4850912504" lon="31.0365663841"><ele>52.22</ele><time>2026-08-30T22:55:14Z</time></trkpt><trkpt lat="59.4850912504" lon="31.0365665518"><ele>56.83</ele><time>2026-08-30T22:55:15Z</time></trkpt><trkpt lat="59.4850909989" lon="31.0365667194"><ele>55.50</ele><time>2026-08-30T22:55:16Z</time></trkpt><trkpt lat="59.4850340858" lon="31.0366453417"><ele>53.47</ele><time>2026-08-30T22:55:51Z</time></trkpt><trkpt lat="59.4849444833" lon="31.0367582459"><ele>53.73</ele><time>2026-08-30T22:56:05Z</time></trkpt><trkpt lat="59.4848389551" lon="31.0368662886"><ele>53.68</ele><time>2026-08-30T22:56:20Z</time></trkpt><trkpt lat="59.4848104566" lon="31.0368869919"><ele>53.71</ele><time>2026-08-30T22:56:23Z</time></trkpt><trkpt lat="59.4847224467" lon="31.0370558873"><ele>53.65</ele><time>2026-08-30T22:56:39Z</time></trkpt><trkpt lat="59.4846450817" lon="31.0371209309"><ele>53.74</ele><time>2026-08-30T22:56:54Z</time></trkpt><trkpt lat="59.4845849834" lon="31.0372794326"><ele>53.81</ele><time>2026-08-30T22:57:10Z</time></trkpt><trkpt lat="59.4845142402" lon="31.0374282952"><ele>53.72</ele><time>2026-08-30T22:57:23Z</time></trkpt><trkpt lat="59.4844280742" lon="31.0375416186"><ele>54.37</ele><time>2026-08-30T22:57:37Z</time></trkpt><trkpt lat="59.4844105560" lon="31.0376135353"><ele>51.68</ele><time>2026-08-30T22:57:40Z</time></trkpt><trkpt lat="59.4843579177" lon="31.0377288703"><ele>53.57</ele><time>2026-08-30T22:57:55Z</time></trkpt><trkpt lat="59.4844167586" lon="31.0377007909"><ele>53.60</ele><time>2026-08-30T22:58:42Z</time></trkpt><trkpt lat="59.4843471888" lon="31.0377556924"><ele>53.61</ele><time>2026-08-30T22:59:05Z</time></trkpt><trkpt lat="59.4842524733" lon="31.0379386693"><ele>53.60</ele><time>2026-08-30T22:59:22Z</time></trkpt><trkpt lat="59.4841737673" lon="31.0381422658"><ele>53.71</ele><time>2026-08-30T22:59:39Z</time></trkpt><trkpt lat="59.4841248170" lon="31.0382858478"><ele>53.46</ele><time>2026-08-30T22:59:56Z</time></trkpt><trkpt lat="59.4841021858" lon="31.0382700898"><ele>54.77</ele><time>2026-08-30T23:00:18Z</time></trkpt><trkpt lat="59.4840910379" lon="31.0382755380"><ele>52.77</ele><time>2026-08-30T23:00:21Z</time></trkpt><trkpt lat="59.4841071311" lon="31.0382921342"><ele>53.34</ele><time>2026-08-30T23:00:48Z</time></trkpt><trkpt lat="59.4840917923" lon="31.0383186210"><ele>53.20</ele><time>2026-08-30T23:01:07Z</time></trkpt><trkpt lat="59.4839597773" lon="31.0385054536"><ele>53.31</ele><time>2026-08-30T23:01:22Z</time></trkpt><trkpt lat="59.4838455319" lon="31.0386713315"><ele>53.31</ele><time>2026-08-30T23:01:38Z</time></trkpt><trkpt lat="59.4837363996" lon="31.0388550628"><ele>53.53</ele><time>2026-08-30T23:01:55Z</time></trkpt><trkpt lat="59.4837376568" lon="31.0388739221"><ele>53.67</ele><time>2026-08-30T23:02:28Z</time></trkpt><trkpt lat="59.4837272633" lon="31.0388070345"><ele>53.28</ele><time>2026-08-30T23:03:05Z</time></trkpt><trkpt lat="59.4836948253" lon="31.0389323439"><ele>53.32</ele><time>2026-08-30T23:03:41Z</time></trkpt><trkpt lat="59.4835937396" lon="31.0390778538"><ele>53.35</ele><time>2026-08-30T23:03:56Z</time></trkpt><trkpt lat="59.4834881276" lon="31.0393629223"><ele>53.34</ele><time>2026-08-30T23:04:14Z</time></trkpt><trkpt lat="59.4833564479" lon="31.0395998787"><ele>53.15</ele><time>2026-08-30T23:04:33Z</time></trkpt><trkpt lat="59.4831935875" lon="31.0397502501"><ele>53.27</ele><time>2026-08-30T23:04:51Z</time></trkpt><trkpt lat="59.4831251074" lon="31.0398261063"><ele>53.08</ele><time>2026-08-30T23:05:08Z</time></trkpt><trkpt lat="59.4831123669" lon="31.0401355661"><ele>53.04</ele><time>2026-08-30T23:05:29Z</time></trkpt><trkpt lat="59.4830686972" lon="31.0403631348"><ele>53.17</ele><time>2026-08-30T23:05:45Z</time></trkpt><trkpt lat="59.4830129575" lon="31.0404648911"><ele>53.14</ele><time>2026-08-30T23:06:04Z</time></trkpt><trkpt lat="59.4829716347" lon="31.0405574273"><ele>53.38</ele><time>2026-08-30T23:06:59Z</time></trkpt><trkpt lat="59.4829220977" lon="31.0407285858"><ele>53.24</ele><time>2026-08-30T23:07:16Z</time></trkpt><trkpt lat="59.4828736503" lon="31.0408621933"><ele>53.27</ele><time>2026-08-30T23:07:26Z</time></trkpt><trkpt lat="59.4827895798" lon="31.0411070287"><ele>53.47</ele><time>2026-08-30T23:07:42Z</time></trkpt><trkpt lat="59.4827839639" lon="31.0411364492"><ele>53.48</ele><time>2026-08-30T23:07:45Z</time></trkpt><trkpt lat="59.4826622587" lon="31.0412336793"><ele>53.47</ele><time>2026-08-30T23:08:01Z</time></trkpt><trkpt lat="59.4825984724" lon="31.0413820390"><ele>53.59</ele><time>2026-08-30T23:08:18Z</time></trkpt><trkpt lat="59.4824947882" lon="31.0416359268"><ele>53.93</ele><time>2026-08-30T23:08:36Z</time></trkpt><trkpt lat="59.4824335165" lon="31.0417486634"><ele>53.52</ele><time>2026-08-30T23:08:53Z</time></trkpt><trkpt lat="59.4823938701" lon="31.0419211630"><ele>53.54</ele><time>2026-08-30T23:09:08Z</time></trkpt><trkpt lat="59.4823827222" lon="31.0419356637"><ele>50.51</ele><time>2026-08-30T23:09:10Z</time></trkpt><trkpt lat="59.4823773578" lon="31.0419413634"><ele>55.33</ele><time>2026-08-30T23:09:11Z</time></trkpt><trkpt lat="59.4822588377" lon="31.0420286190"><ele>53.30</ele><time>2026-08-30T23:09:45Z</time></trkpt><trkpt lat="59.4822011702" lon="31.0422183853"><ele>53.71</ele><time>2026-08-30T23:09:58Z</time></trkpt><trkpt lat="59.4821025990" lon="31.0424076486"><ele>53.56</ele><time>2026-08-30T23:10:18Z</time></trkpt><trkpt lat="59.4820073806" lon="31.0425603669"><ele>53.67</ele><time>2026-08-30T23:10:32Z</time></trkpt><trkpt lat="59.4819747750" lon="31.0426137596"><ele>53.60</ele><time>2026-08-30T23:10:36Z</time></trkpt><trkpt lat="59.4818900339" lon="31.0427154321"><ele>53.66</ele><time>2026-08-30T23:10:50Z</time></trkpt><trkpt lat="59.4818822388" lon="31.0427178629"><ele>53.85</ele><time>2026-08-30T23:10:51Z</time></trkpt><trkpt lat="59.4817974977" lon="31.0428521410"><ele>53.65</ele><time>2026-08-30T23:11:10Z</time></trkpt><trkpt lat="59.4817378186" lon="31.0429245606"><ele>54.30</ele><time>2026-08-30T23:11:24Z</time></trkpt><trkpt lat="59.4816828333" lon="31.0428954754"><ele>53.30</ele><time>2026-08-30T23:11:44Z</time></trkpt><trkpt lat="59.4816595316" lon="31.0429600999"><ele>53.32</ele><time>2026-08-30T23:12:43Z</time></trkpt><trkpt lat="59.4817488827" lon="31.0429255664"><ele>53.25</ele><time>2026-08-30T23:13:16Z</time></trkpt><trkpt lat="59.4816567656" lon="31.0429471917"><ele>53.26</ele><time>2026-08-30T23:13:47Z</time></trkpt><trkpt lat="59.4815557636" lon="31.0430538096"><ele>53.01</ele><time>2026-08-30T23:14:08Z</time></trkpt><trkpt lat="59.4814825896" lon="31.0431532189"><ele>53.03</ele><time>2026-08-30T23:14:23Z</time></trkpt><trkpt lat="59.4813801628" lon="31.0433279816"><ele>53.08</ele><time>2026-08-30T23:14:39Z</time></trkpt><trkpt lat="59.4812353235" lon="31.0435600765"><ele>53.18</ele><time>2026-08-30T23:15:01Z</time></trkpt><trkpt lat="59.4811825175" lon="31.0436537862"><ele>53.30</ele><time>2026-08-30T23:15:13Z</time></trkpt><trkpt lat="59.4811161328" lon="31.0437927581"><ele>53.45</ele><time>2026-08-30T23:15:29Z</time></trkpt><trkpt lat="59.4810432941" lon="31.0439885594"><ele>53.52</ele><time>2026-08-30T23:15:46Z</time></trkpt><trkpt lat="59.4809813518" lon="31.0441644955"><ele>53.43</ele><time>2026-08-30T23:16:02Z</time></trkpt><trkpt lat="59.4809555355" lon="31.0442050640"><ele>53.38</ele><time>2026-08-30T23:16:33Z</time></trkpt><trkpt lat="59.4809727184" lon="31.0442134459"><ele>53.55</ele><time>2026-08-30T23:17:26Z</time></trkpt><trkpt lat="59.4809520990" lon="31.0442503262"><ele>53.46</ele><time>2026-08-30T23:17:58Z</time></trkpt><trkpt lat="59.4808159769" lon="31.0443939921"><ele>53.50</ele><time>2026-08-30T23:18:16Z</time></trkpt><trkpt lat="59.4807978719" lon="31.0445088241"><ele>52.75</ele><time>2026-08-30T23:18:39Z</time></trkpt><trkpt lat="59.4808056671" lon="31.0445521586"><ele>53.98</ele><time>2026-08-30T23:18:42Z</time></trkpt><trkpt lat="59.4808718842" lon="31.0446685832"><ele>53.00</ele><time>2026-08-30T23:19:00Z</time></trkpt><trkpt lat="59.4808691181" lon="31.0447002668"><ele>53.39</ele><time>2026-08-30T23:19:21Z</time></trkpt><trkpt lat="59.4808595628" lon="31.0446624644"><ele>53.21</ele><time>2026-08-30T23:19:29Z</time></trkpt><trkpt lat="59.4808474928" lon="31.0446402524"><ele>53.04</ele><time>2026-08-30T23:19:48Z</time></trkpt><trkpt lat="59.4808375183" lon="31.0446659848"><ele>53.42</ele><time>2026-08-30T23:20:39Z</time></trkpt><trkpt lat="59.4808323216" lon="31.0446697567"><ele>54.19</ele><time>2026-08-30T23:21:06Z</time></trkpt><trkpt lat="59.4808289688" lon="31.0446925554"><ele>48.85</ele><time>2026-08-30T23:21:51Z</time></trkpt><trkpt lat="59.4808284659" lon="31.0446926393"><ele>56.83</ele><time>2026-08-30T23:21:52Z</time></trkpt><trkpt lat="59.4808280468" lon="31.0446928907"><ele>56.19</ele><time>2026-08-30T23:21:53Z</time></trkpt><trkpt lat="59.4808276277" lon="31.0446931422"><ele>54.61</ele><time>2026-08-30T23:21:55Z</time></trkpt><trkpt lat="59.4808242749" lon="31.0447062179"><ele>54.39</ele><time>2026-08-30T23:22:50Z</time></trkpt><trkpt lat="59.4808368478" lon="31.0446385760"><ele>54.49</ele><time>2026-08-30T23:23:13Z</time></trkpt><trkpt lat="59.4807179924" lon="31.0443738755"><ele>54.48</ele><time>2026-08-30T23:23:29Z</time></trkpt><trkpt lat="59.4807060901" lon="31.0443502385"><ele>54.46</ele><time>2026-08-30T23:23:31Z</time></trkpt><trkpt lat="59.4806395378" lon="31.0441293754"><ele>54.61</ele><time>2026-08-30T23:23:46Z</time></trkpt><trkpt lat="59.4806338381" lon="31.0441120248"><ele>54.52</ele><time>2026-08-30T23:23:49Z</time></trkpt><trkpt lat="59.4805754162" lon="31.0439127870"><ele>54.49</ele><time>2026-08-30T23:24:03Z</time></trkpt><trkpt lat="59.4804693852" lon="31.0437181592"><ele>53.88</ele><time>2026-08-30T23:24:18Z</time></trkpt><trkpt lat="59.4804602489" lon="31.0436874814"><ele>55.00</ele><time>2026-08-30T23:24:20Z</time></trkpt><trkpt lat="59.4804313313" lon="31.0436275508"><ele>54.41</ele><time>2026-08-30T23:24:24Z</time></trkpt><trkpt lat="59.4803675450" lon="31.0434565600"><ele>54.00</ele><time>2026-08-30T23:24:38Z</time></trkpt><trkpt lat="59.4803573191" lon="31.0434189253"><ele>54.26</ele><time>2026-08-30T23:24:40Z</time></trkpt><trkpt lat="59.4802770205" lon="31.0431676358"><ele>54.22</ele><time>2026-08-30T23:24:56Z</time></trkpt><trkpt lat="59.4802630227" lon="31.0430472717"><ele>56.23</ele><time>2026-08-30T23:25:10Z</time></trkpt><trkpt lat="59.4801719952" lon="31.0430810507"><ele>54.22</ele><time>2026-08-30T23:25:33Z</time></trkpt><trkpt lat="59.4801514596" lon="31.0431265645"><ele>53.02</ele><time>2026-08-30T23:25:58Z</time></trkpt><trkpt lat="59.4801459275" lon="31.0431126505"><ele>53.42</ele><time>2026-08-30T23:26:52Z</time></trkpt><trkpt lat="59.4801628590" lon="31.0430938751"><ele>54.16</ele><time>2026-08-30T23:27:26Z</time></trkpt><trkpt lat="59.4801623560" lon="31.0430917796"><ele>54.27</ele><time>2026-08-30T23:28:18Z</time></trkpt><trkpt lat="59.4801608473" lon="31.0430934560"><ele>54.24</ele><time>2026-08-30T23:29:09Z</time></trkpt><trkpt lat="59.4802342728" lon="31.0430605989"><ele>54.11</ele><time>2026-08-30T23:29:25Z</time></trkpt><trkpt lat="59.4803227019" lon="31.0428871773"><ele>54.30</ele><time>2026-08-30T23:29:41Z</time></trkpt><trkpt lat="59.4803631864" lon="31.0427581798"><ele>54.26</ele><time>2026-08-30T23:29:58Z</time></trkpt><trkpt lat="59.4804590754" lon="31.0426296853"><ele>54.25</ele><time>2026-08-30T23:30:12Z</time></trkpt><trkpt lat="59.4805212691" lon="31.0426235665"><ele>54.31</ele><time>2026-08-30T23:30:35Z</time></trkpt><trkpt lat="59.4805415533" lon="31.0425562598"><ele>54.00</ele><time>2026-08-30T23:30:59Z</time></trkpt><trkpt lat="59.4806060940" lon="31.0424418468"><ele>54.14</ele><time>2026-08-30T23:31:19Z</time></trkpt><trkpt lat="59.4806338381" lon="31.0424065590"><ele>54.12</ele><time>2026-08-30T23:31:21Z</time></trkpt><trkpt lat="59.4807204232" lon="31.0422397591"><ele>54.08</ele><time>2026-08-30T23:31:34Z</time></trkpt><trkpt lat="59.4807989616" lon="31.0420347378"><ele>54.23</ele><time>2026-08-30T23:31:50Z</time></trkpt><trkpt lat="59.4808110315" lon="31.0420232546"><ele>54.20</ele><time>2026-08-30T23:32:14Z</time></trkpt><trkpt lat="59.4808380213" lon="31.0419955943"><ele>53.86</ele><time>2026-08-30T23:32:46Z</time></trkpt><trkpt lat="59.4808585569" lon="31.0421040561"><ele>54.62</ele><time>2026-08-30T23:33:16Z</time></trkpt><trkpt lat="59.4808353391" lon="31.0419816803"><ele>54.58</ele><time>2026-08-30T23:34:06Z</time></trkpt><trkpt lat="59.4809036516" lon="31.0419886373"><ele>54.52</ele><time>2026-08-30T23:34:42Z</time></trkpt><trkpt lat="59.4809369277" lon="31.0418323986"><ele>54.40</ele><time>2026-08-30T23:34:56Z</time></trkpt><trkpt lat="59.4810009655" lon="31.0416027345"><ele>54.38</ele><time>2026-08-30T23:35:11Z</time></trkpt><trkpt lat="59.4810323976" lon="31.0414806940"><ele>54.45</ele><time>2026-08-30T23:35:19Z</time></trkpt><trkpt lat="59.4811211620" lon="31.0413024109"><ele>54.65</ele><time>2026-08-30T23:35:36Z</time></trkpt><trkpt lat="59.4811250176" lon="31.0412138980"><ele>54.62</ele><time>2026-08-30T23:35:59Z</time></trkpt><trkpt lat="59.4812194817" lon="31.0410872474"><ele>54.49</ele><time>2026-08-30T23:36:18Z</time></trkpt><trkpt lat="59.4812854473" lon="31.0410901811"><ele>54.81</ele><time>2026-08-30T23:36:51Z</time></trkpt><trkpt lat="59.4812911469" lon="31.0410890076"><ele>55.02</ele><time>2026-08-30T23:37:32Z</time></trkpt><trkpt lat="59.4812989421" lon="31.0410541389"><ele>54.95</ele><time>2026-08-30T23:37:35Z</time></trkpt><trkpt lat="59.4813593756" lon="31.0409103893"><ele>55.19</ele><time>2026-08-30T23:37:50Z</time></trkpt><trkpt lat="59.4813897181" lon="31.0408440884"><ele>56.52</ele><time>2026-08-30T23:37:55Z</time></trkpt><trkpt lat="59.4814619701" lon="31.0406235605"><ele>55.22</ele><time>2026-08-30T23:38:11Z</time></trkpt><trkpt lat="59.4815326296" lon="31.0404396616"><ele>55.20</ele><time>2026-08-30T23:38:25Z</time></trkpt><trkpt lat="59.4816253334" lon="31.0403462872"><ele>55.19</ele><time>2026-08-30T23:38:42Z</time></trkpt><trkpt lat="59.4817065541" lon="31.0402277671"><ele>55.14</ele><time>2026-08-30T23:38:58Z</time></trkpt><trkpt lat="59.4817411713" lon="31.0400841013"><ele>55.30</ele><time>2026-08-30T23:39:14Z</time></trkpt><trkpt lat="59.4818105735" lon="31.0399661679"><ele>56.31</ele><time>2026-08-30T23:39:29Z</time></trkpt><trkpt lat="59.4818044547" lon="31.0400117654"><ele>55.00</ele><time>2026-08-30T23:39:50Z</time></trkpt><trkpt lat="59.4818504713" lon="31.0399792437"><ele>51.01</ele><time>2026-08-30T23:40:21Z</time></trkpt><trkpt lat="59.4818521477" lon="31.0399743821"><ele>55.82</ele><time>2026-08-30T23:40:22Z</time></trkpt><trkpt lat="59.4818607811" lon="31.0399577860"><ele>57.18</ele><time>2026-08-30T23:40:24Z</time></trkpt><trkpt lat="59.4818523992" lon="31.0399662517"><ele>55.32</ele><time>2026-08-30T23:40:40Z</time></trkpt><trkpt lat="59.4817992579" lon="31.0400413536"><ele>55.71</ele><time>2026-08-30T23:41:10Z</time></trkpt><trkpt lat="59.4818138424" lon="31.0400661640"><ele>56.08</ele><time>2026-08-30T23:42:34Z</time></trkpt><trkpt lat="59.4818734378" lon="31.0399711970"><ele>55.88</ele><time>2026-08-30T23:42:59Z</time></trkpt><trkpt lat="59.4819356315" lon="31.0398182273"><ele>56.05</ele><time>2026-08-30T23:43:14Z</time></trkpt><trkpt lat="59.4820440933" lon="31.0396118648"><ele>55.95</ele><time>2026-08-30T23:43:31Z</time></trkpt><trkpt lat="59.4821240567" lon="31.0394665226"><ele>55.89</ele><time>2026-08-30T23:43:44Z</time></trkpt><trkpt lat="59.4821776170" lon="31.0392578971"><ele>55.87</ele><time>2026-08-30T23:44:01Z</time></trkpt><trkpt lat="59.4822641183" lon="31.0390682984"><ele>55.92</ele><time>2026-08-30T23:44:16Z</time></trkpt><trkpt lat="59.4823767710" lon="31.0389160831"><ele>56.07</ele><time>2026-08-30T23:44:33Z</time></trkpt><trkpt lat="59.4824525435" lon="31.0387871694"><ele>56.04</ele><time>2026-08-30T23:44:48Z</time></trkpt><trkpt lat="59.4825194310" lon="31.0385847464"><ele>56.13</ele><time>2026-08-30T23:45:00Z</time></trkpt><trkpt lat="59.4826019928" lon="31.0384500492"><ele>56.12</ele><time>2026-08-30T23:45:14Z</time></trkpt><trkpt lat="59.4826604985" lon="31.0382876918"><ele>56.09</ele><time>2026-08-30T23:45:28Z</time></trkpt><trkpt lat="59.4827693794" lon="31.0381282680"><ele>56.22</ele><time>2026-08-30T23:45:48Z</time></trkpt><trkpt lat="59.4828245323" lon="31.0382082313"><ele>56.64</ele><time>2026-08-30T23:46:46Z</time></trkpt><trkpt lat="59.4828786794" lon="31.0380091611"><ele>56.62</ele><time>2026-08-30T23:47:01Z</time></trkpt><trkpt lat="59.4829880632" lon="31.0378125217"><ele>56.72</ele><time>2026-08-30T23:47:16Z</time></trkpt><trkpt lat="59.4830850419" lon="31.0376120266"><ele>56.92</ele><time>2026-08-30T23:47:33Z</time></trkpt><trkpt lat="59.4831899833" lon="31.0374413710"><ele>56.95</ele><time>2026-08-30T23:47:48Z</time></trkpt><trkpt lat="59.4831919950" lon="31.0373619944"><ele>57.03</ele><time>2026-08-30T23:47:53Z</time></trkpt><trkpt lat="59.4832799211" lon="31.0371290613"><ele>57.20</ele><time>2026-08-30T23:48:09Z</time></trkpt><trkpt lat="59.4833262730" lon="31.0370765906"><ele>57.17</ele><time>2026-08-30T23:48:14Z</time></trkpt><trkpt lat="59.4833568670" lon="31.0370456614"><ele>57.28</ele><time>2026-08-30T23:48:17Z</time></trkpt><trkpt lat="59.4835011195" lon="31.0370061826"><ele>57.45</ele><time>2026-08-30T23:48:33Z</time></trkpt><trkpt lat="59.4835883752" lon="31.0370690469"><ele>57.93</ele><time>2026-08-30T23:48:49Z</time></trkpt><trkpt lat="59.4835983496" lon="31.0370397940"><ele>57.76</ele><time>2026-08-30T23:49:25Z</time></trkpt><trkpt lat="59.4835821725" lon="31.0370946117"><ele>57.25</ele><time>2026-08-30T23:49:54Z</time></trkpt><trkpt lat="59.4835052267" lon="31.0371179972"><ele>54.96</ele><time>2026-08-30T23:50:11Z</time></trkpt><trkpt lat="59.4834972639" lon="31.0371211823"><ele>57.25</ele><time>2026-08-30T23:50:21Z</time></trkpt><trkpt lat="59.4834810868" lon="31.0370518640"><ele>57.07</ele><time>2026-08-30T23:52:06Z</time></trkpt><trkpt lat="59.4834915642" lon="31.0371024907"><ele>57.58</ele><time>2026-08-30T23:53:57Z</time></trkpt><trkpt lat="59.4835361559" lon="31.0370564740"><ele>57.81</ele><time>2026-08-30T23:54:42Z</time></trkpt><trkpt lat="59.4835301209" lon="31.0370951984"><ele>53.82</ele><time>2026-08-30T23:55:07Z</time></trkpt><trkpt lat="59.4835308753" lon="31.0371014848"><ele>49.66</ele><time>2026-08-30T23:55:08Z</time></trkpt><trkpt lat="59.4835306238" lon="31.0371049214"><ele>53.86</ele><time>2026-08-30T23:55:09Z</time></trkpt><trkpt lat="59.4835302886" lon="31.0371072683"><ele>57.23</ele><time>2026-08-30T23:55:10Z</time></trkpt><trkpt lat="59.4835304562" lon="31.0371037479"><ele>64.17</ele><time>2026-08-30T23:55:13Z</time></trkpt><trkpt lat="59.4835311268" lon="31.0371023230"><ele>61.89</ele><time>2026-08-30T23:55:14Z</time></trkpt><trkpt lat="59.4835320488" lon="31.0371021554"><ele>58.65</ele><time>2026-08-30T23:55:16Z</time></trkpt><trkpt lat="59.4835196435" lon="31.0371269658"><ele>58.30</ele><time>2026-08-30T23:56:31Z</time></trkpt><trkpt lat="59.4835125189" lon="31.0370378662"><ele>58.79</ele><time>2026-08-30T23:57:49Z</time></trkpt><trkpt lat="59.4835272711" lon="31.0370068531"><ele>58.82</ele><time>2026-08-30T23:59:01Z</time></trkpt><trkpt lat="59.4835201465" lon="31.0370219406"><ele>59.47</ele><time>2026-08-31T00:00:10Z</time></trkpt><trkpt lat="59.4834950846" lon="31.0370617546"><ele>59.72</ele><time>2026-08-31T00:00:52Z</time></trkpt><trkpt lat="59.4835089985" lon="31.0369885806"><ele>59.98</ele><time>2026-08-31T00:01:51Z</time></trkpt><trkpt lat="59.4835186377" lon="31.0370059311"><ele>60.12</ele><time>2026-08-31T00:02:23Z</time></trkpt><trkpt lat="59.4834973477" lon="31.0369618423"><ele>60.62</ele><time>2026-08-31T00:03:22Z</time></trkpt><trkpt lat="59.4834859483" lon="31.0369725712"><ele>61.19</ele><time>2026-08-31T00:04:19Z</time></trkpt><trkpt lat="59.4835115969" lon="31.0369529575"><ele>61.47</ele><time>2026-08-31T00:04:52Z</time></trkpt><trkpt lat="59.4835128542" lon="31.0370627604"><ele>62.36</ele><time>2026-08-31T00:05:59Z</time></trkpt><trkpt lat="59.4835170452" lon="31.0370897502"><ele>63.05</ele><time>2026-08-31T00:06:59Z</time></trkpt><trkpt lat="59.4835576974" lon="31.0371074360"><ele>63.15</ele><time>2026-08-31T00:07:44Z</time></trkpt><trkpt lat="59.4835557695" lon="31.0370190907"><ele>63.67</ele><time>2026-08-31T00:08:26Z</time></trkpt><trkpt lat="59.4835419394" lon="31.0370860621"><ele>63.75</ele><time>2026-08-31T00:09:25Z</time></trkpt><trkpt lat="59.4834595453" lon="31.0370196775"><ele>64.14</ele><time>2026-08-31T00:10:33Z</time></trkpt><trkpt lat="59.4835218228" lon="31.0370326694"><ele>64.26</ele><time>2026-08-31T00:11:27Z</time></trkpt><trkpt lat="59.4835344795" lon="31.0370229464"><ele>64.52</ele><time>2026-08-31T00:12:14Z</time></trkpt><trkpt lat="59.4835410174" lon="31.0371027421"><ele>65.75</ele><time>2026-08-31T00:13:10Z</time></trkpt><trkpt lat="59.4835321326" lon="31.0370983835"><ele>65.66</ele><time>2026-08-31T00:13:45Z</time></trkpt><trkpt lat="59.4835353177" lon="31.0370898340"><ele>65.80</ele><time>2026-08-31T00:14:13Z</time></trkpt><trkpt lat="59.4835491478" lon="31.0371216852"><ele>65.93</ele><time>2026-08-31T00:14:29Z</time></trkpt><trkpt lat="59.4835639838" lon="31.0370800272"><ele>66.07</ele><time>2026-08-31T00:14:58Z</time></trkpt><trkpt lat="59.4835023768" lon="31.0369969625"><ele>65.73</ele><time>2026-08-31T00:15:21Z</time></trkpt><trkpt lat="59.4835121837" lon="31.0368971340"><ele>66.64</ele><time>2026-08-31T00:15:28Z</time></trkpt><trkpt lat="59.4835100882" lon="31.0367279872"><ele>65.81</ele><time>2026-08-31T00:15:42Z</time></trkpt><trkpt lat="59.4835175481" lon="31.0367813800"><ele>65.99</ele><time>2026-08-31T00:16:13Z</time></trkpt><trkpt lat="59.4834993593" lon="31.0366935376"><ele>65.78</ele><time>2026-08-31T00:16:57Z</time></trkpt><trkpt lat="59.4834732916" lon="31.0366744269"><ele>65.61</ele><time>2026-08-31T00:17:35Z</time></trkpt><trkpt lat="59.4834715314" lon="31.0367009975"><ele>65.66</ele><time>2026-08-31T00:18:01Z</time></trkpt><trkpt lat="59.4834828470" lon="31.0366716608"><ele>65.18</ele><time>2026-08-31T00:18:57Z</time></trkpt><trkpt lat="59.4835390896" lon="31.0365786217"><ele>65.27</ele><time>2026-08-31T00:19:04Z</time></trkpt><trkpt lat="59.4836155325" lon="31.0365101416"><ele>65.41</ele><time>2026-08-31T00:19:14Z</time></trkpt><trkpt lat="59.4836985972" lon="31.0363045335"><ele>65.01</ele><time>2026-08-31T00:19:25Z</time></trkpt><trkpt lat="59.4837561809" lon="31.0361783858"><ele>65.14</ele><time>2026-08-31T00:19:34Z</time></trkpt><trkpt lat="59.4838486332" lon="31.0360768810"><ele>64.86</ele><time>2026-08-31T00:19:48Z</time></trkpt><trkpt lat="59.4839120004" lon="31.0359503981"><ele>64.66</ele><time>2026-08-31T00:20:01Z</time></trkpt><trkpt lat="59.4839928858" lon="31.0357905552"><ele>64.77</ele><time>2026-08-31T00:20:12Z</time></trkpt><trkpt lat="59.4840008486" lon="31.0357758868"><ele>64.76</ele><time>2026-08-31T00:20:13Z</time></trkpt><trkpt lat="59.4840567559" lon="31.0355675966"><ele>64.69</ele><time>2026-08-31T00:20:26Z</time></trkpt><trkpt lat="59.4841722585" lon="31.0354162194"><ele>64.61</ele><time>2026-08-31T00:20:41Z</time></trkpt><trkpt lat="59.4842290878" lon="31.0352802649"><ele>64.45</ele><time>2026-08-31T00:20:56Z</time></trkpt><trkpt lat="59.4842381403" lon="31.0352805164"><ele>64.42</ele><time>2026-08-31T00:21:00Z</time></trkpt><trkpt lat="59.4842541497" lon="31.0353652574"><ele>64.28</ele><time>2026-08-31T00:21:22Z</time></trkpt><trkpt lat="59.4842518866" lon="31.0353830270"><ele>64.09</ele><time>2026-08-31T00:22:04Z</time></trkpt><trkpt lat="59.4843058661" lon="31.0352598969"><ele>63.93</ele><time>2026-08-31T00:22:25Z</time></trkpt><trkpt lat="59.4843761902" lon="31.0350997187"><ele>63.65</ele><time>2026-08-31T00:22:39Z</time></trkpt><trkpt lat="59.4843819737" lon="31.0349660274"><ele>63.77</ele><time>2026-08-31T00:22:53Z</time></trkpt><trkpt lat="59.4843679760" lon="31.0349214356"><ele>63.29</ele><time>2026-08-31T00:23:13Z</time></trkpt><trkpt lat="59.4843662996" lon="31.0349774268"><ele>63.09</ele><time>2026-08-31T00:23:36Z</time></trkpt><trkpt lat="59.4843865000" lon="31.0348941945"><ele>62.83</ele><time>2026-08-31T00:23:59Z</time></trkpt><trkpt lat="59.4844574947" lon="31.0348551348"><ele>63.06</ele><time>2026-08-31T00:24:18Z</time></trkpt><trkpt lat="59.4845383801" lon="31.0348118842"><ele>62.77</ele><time>2026-08-31T00:25:01Z</time></trkpt><trkpt lat="59.4845376257" lon="31.0347966291"><ele>62.73</ele><time>2026-08-31T00:25:02Z</time></trkpt><trkpt lat="59.4845541380" lon="31.0345785320"><ele>63.32</ele><time>2026-08-31T00:25:15Z</time></trkpt><trkpt lat="59.4845704827" lon="31.0344710760"><ele>63.43</ele><time>2026-08-31T00:25:41Z</time></trkpt><trkpt lat="59.4846298266" lon="31.0343417432"><ele>63.44</ele><time>2026-08-31T00:25:51Z</time></trkpt><trkpt lat="59.4847095385" lon="31.0341451876"><ele>63.55</ele><time>2026-08-31T00:26:05Z</time></trkpt><trkpt lat="59.4847771805" lon="31.0340540763"><ele>63.81</ele><time>2026-08-31T00:26:19Z</time></trkpt><trkpt lat="59.4847916812" lon="31.0340325348"><ele>63.92</ele><time>2026-08-31T00:26:21Z</time></trkpt><trkpt lat="59.4848866481" lon="31.0338022839"><ele>63.72</ele><time>2026-08-31T00:26:37Z</time></trkpt><trkpt lat="59.4849740714" lon="31.0336411837"><ele>63.52</ele><time>2026-08-31T00:26:50Z</time></trkpt><trkpt lat="59.4849765860" lon="31.0336217377"><ele>63.57</ele><time>2026-08-31T00:26:51Z</time></trkpt><trkpt lat="59.4850801863" lon="31.0335006192"><ele>63.73</ele><time>2026-08-31T00:27:09Z</time></trkpt><trkpt lat="59.4851319864" lon="31.0333810933"><ele>63.31</ele><time>2026-08-31T00:27:19Z</time></trkpt><trkpt lat="59.4851701241" lon="31.0335659981"><ele>63.04</ele><time>2026-08-31T00:27:34Z</time></trkpt><trkpt lat="59.4851163961" lon="31.0335084982"><ele>63.31</ele><time>2026-08-31T00:28:11Z</time></trkpt><trkpt lat="59.4851357583" lon="31.0335730389"><ele>62.81</ele><time>2026-08-31T00:28:31Z</time></trkpt><trkpt lat="59.4851919170" lon="31.0335287824"><ele>62.79</ele><time>2026-08-31T00:28:51Z</time></trkpt><trkpt lat="59.4851781707" lon="31.0335400980"><ele>63.04</ele><time>2026-08-31T00:29:19Z</time></trkpt><trkpt lat="59.4850859698" lon="31.0333792493"><ele>63.09</ele><time>2026-08-31T00:29:42Z</time></trkpt><trkpt lat="59.4850826170" lon="31.0333655868"><ele>63.09</ele><time>2026-08-31T00:29:43Z</time></trkpt><trkpt lat="59.4850005582" lon="31.0331700370"><ele>62.95</ele><time>2026-08-31T00:29:57Z</time></trkpt><trkpt lat="59.4848559704" lon="31.0329985432"><ele>63.10</ele><time>2026-08-31T00:30:14Z</time></trkpt><trkpt lat="59.4848010689" lon="31.0328410473"><ele>62.96</ele><time>2026-08-31T00:30:29Z</time></trkpt><trkpt lat="59.4847325888" lon="31.0326963756"><ele>62.96</ele><time>2026-08-31T00:30:43Z</time></trkpt><trkpt lat="59.4846884999" lon="31.0325123928"><ele>62.73</ele><time>2026-08-31T00:30:58Z</time></trkpt><trkpt lat="59.4847329240" lon="31.0323621891"><ele>62.91</ele><time>2026-08-31T00:31:18Z</time></trkpt><trkpt lat="59.4846796989" lon="31.0321650468"><ele>62.82</ele><time>2026-08-31T00:31:35Z</time></trkpt><trkpt lat="59.4845915213" lon="31.0322291683"><ele>62.96</ele><time>2026-08-31T00:31:57Z</time></trkpt><trkpt lat="59.4844591711" lon="31.0321617778"><ele>62.07</ele><time>2026-08-31T00:32:17Z</time></trkpt><trkpt lat="59.4843769446" lon="31.0321012605"><ele>62.73</ele><time>2026-08-31T00:32:31Z</time></trkpt><trkpt lat="59.4843880087" lon="31.0319479555"><ele>62.48</ele><time>2026-08-31T00:32:44Z</time></trkpt><trkpt lat="59.4843420759" lon="31.0319722630"><ele>62.86</ele><time>2026-08-31T00:33:32Z</time></trkpt><trkpt lat="59.4843758550" lon="31.0320070479"><ele>62.77</ele><time>2026-08-31T00:33:54Z</time></trkpt><trkpt lat="59.4843757711" lon="31.0321515519"><ele>62.69</ele><time>2026-08-31T00:34:19Z</time></trkpt><trkpt lat="59.4842882641" lon="31.0321939643"><ele>62.59</ele><time>2026-08-31T00:35:01Z</time></trkpt><trkpt lat="59.4842864200" lon="31.0323995724"><ele>62.56</ele><time>2026-08-31T00:35:18Z</time></trkpt><trkpt lat="59.4841959793" lon="31.0325570684"><ele>62.48</ele><time>2026-08-31T00:35:32Z</time></trkpt><trkpt lat="59.4841332827" lon="31.0327376984"><ele>62.69</ele><time>2026-08-31T00:35:49Z</time></trkpt><trkpt lat="59.4840928819" lon="31.0327475891"><ele>62.35</ele><time>2026-08-31T00:36:12Z</time></trkpt><trkpt lat="59.4840338733" lon="31.0329654347"><ele>62.28</ele><time>2026-08-31T00:36:41Z</time></trkpt><trkpt lat="59.4839905389" lon="31.0330602340"><ele>62.46</ele><time>2026-08-31T00:36:49Z</time></trkpt><trkpt lat="59.4838926382" lon="31.0331637505"><ele>62.20</ele><time>2026-08-31T00:37:07Z</time></trkpt><trkpt lat="59.4838715997" lon="31.0333421174"><ele>62.45</ele><time>2026-08-31T00:37:24Z</time></trkpt><trkpt lat="59.4837810751" lon="31.0333048180"><ele>62.44</ele><time>2026-08-31T00:37:39Z</time></trkpt><trkpt lat="59.4837149419" lon="31.0333618987"><ele>64.23</ele><time>2026-08-31T00:37:54Z</time></trkpt><trkpt lat="59.4836930651" lon="31.0333527625"><ele>62.40</ele><time>2026-08-31T00:38:00Z</time></trkpt><trkpt lat="59.4836389180" lon="31.0333665926"><ele>62.00</ele><time>2026-08-31T00:38:25Z</time></trkpt><trkpt lat="59.4836549275" lon="31.0334347375"><ele>62.23</ele><time>2026-08-31T00:38:46Z</time></trkpt><trkpt lat="59.4836604595" lon="31.0334111843"><ele>61.92</ele><time>2026-08-31T00:39:07Z</time></trkpt><trkpt lat="59.4836274348" lon="31.0334045626"><ele>62.04</ele><time>2026-08-31T00:39:24Z</time></trkpt><trkpt lat="59.4836481381" lon="31.0335102584"><ele>61.86</ele><time>2026-08-31T00:39:55Z</time></trkpt><trkpt lat="59.4837021176" lon="31.0335706919"><ele>62.06</ele><time>2026-08-31T00:40:11Z</time></trkpt><trkpt lat="59.4837034587" lon="31.0335497372"><ele>61.61</ele><time>2026-08-31T00:40:37Z</time></trkpt><trkpt lat="59.4837134331" lon="31.0335793253"><ele>61.44</ele><time>2026-08-31T00:41:14Z</time></trkpt><trkpt lat="59.4836895447" lon="31.0337509867"><ele>61.26</ele><time>2026-08-31T00:41:38Z</time></trkpt><trkpt lat="59.4836857729" lon="31.0337968357"><ele>57.06</ele><time>2026-08-31T00:41:41Z</time></trkpt><trkpt lat="59.4836851861" lon="31.0338057205"><ele>63.21</ele><time>2026-08-31T00:41:42Z</time></trkpt><trkpt lat="59.4836804923" lon="31.0338166170"><ele>61.10</ele><time>2026-08-31T00:41:45Z</time></trkpt><trkpt lat="59.4836248364" lon="31.0339593608"><ele>60.78</ele><time>2026-08-31T00:42:00Z</time></trkpt><trkpt lat="59.4835436996" lon="31.0340651404"><ele>60.96</ele><time>2026-08-31T00:42:19Z</time></trkpt><trkpt lat="59.4834674243" lon="31.0341415834"><ele>60.95</ele><time>2026-08-31T00:42:37Z</time></trkpt><trkpt lat="59.4833743852" lon="31.0341820680"><ele>60.83</ele><time>2026-08-31T00:42:56Z</time></trkpt><trkpt lat="59.4832974393" lon="31.0343876760"><ele>60.84</ele><time>2026-08-31T00:43:14Z</time></trkpt><trkpt lat="59.4831843674" lon="31.0344298370"><ele>60.78</ele><time>2026-08-31T00:43:31Z</time></trkpt><trkpt lat="59.4831882231" lon="31.0344273224"><ele>60.43</ele><time>2026-08-31T00:43:33Z</time></trkpt><trkpt lat="59.4831426255" lon="31.0346409772"><ele>60.81</ele><time>2026-08-31T00:43:50Z</time></trkpt><trkpt lat="59.4831167255" lon="31.0347906779"><ele>60.72</ele><time>2026-08-31T00:43:57Z</time></trkpt><trkpt lat="59.4830681104" lon="31.0349827074"><ele>61.07</ele><time>2026-08-31T00:44:11Z</time></trkpt><trkpt lat="59.4830292184" lon="31.0350516904"><ele>61.31</ele><time>2026-08-31T00:44:18Z</time></trkpt><trkpt lat="59.4829793461" lon="31.0350743216"><ele>62.77</ele><time>2026-08-31T00:44:27Z</time></trkpt><trkpt lat="59.4829695392" lon="31.0350807756"><ele>59.81</ele><time>2026-08-31T00:44:29Z</time></trkpt><trkpt lat="59.4828712195" lon="31.0350899957"><ele>60.72</ele><time>2026-08-31T00:44:48Z</time></trkpt><trkpt lat="59.4828734826" lon="31.0351192486"><ele>60.77</ele><time>2026-08-31T00:45:13Z</time></trkpt><trkpt lat="59.4827787671" lon="31.0351871420"><ele>61.10</ele><time>2026-08-31T00:46:10Z</time></trkpt><trkpt lat="59.4827284757" lon="31.0353639163"><ele>61.13</ele><time>2026-08-31T00:46:28Z</time></trkpt><trkpt lat="59.4826985523" lon="31.0355509166"><ele>60.64</ele><time>2026-08-31T00:47:01Z</time></trkpt><trkpt lat="59.4826268870" lon="31.0356268566"><ele>60.72</ele><time>2026-08-31T00:47:21Z</time></trkpt><trkpt lat="59.4825841393" lon="31.0357458796"><ele>60.83</ele><time>2026-08-31T00:47:39Z</time></trkpt><trkpt lat="59.4825250469" lon="31.0358393379"><ele>60.97</ele><time>2026-08-31T00:47:56Z</time></trkpt><trkpt lat="59.4824646972" lon="31.0358681716"><ele>61.08</ele><time>2026-08-31T00:48:04Z</time></trkpt><trkpt lat="59.4823683891" lon="31.0360716842"><ele>61.10</ele><time>2026-08-31T00:48:22Z</time></trkpt><trkpt lat="59.4823011663" lon="31.0362680722"><ele>61.04</ele><time>2026-08-31T00:48:34Z</time></trkpt><trkpt lat="59.4821819756" lon="31.0364184435"><ele>61.03</ele><time>2026-08-31T00:48:47Z</time></trkpt><trkpt lat="59.4821355399" lon="31.0366129875"><ele>60.99</ele><time>2026-08-31T00:49:02Z</time></trkpt><trkpt lat="59.4820601866" lon="31.0367653705"><ele>60.64</ele><time>2026-08-31T00:49:27Z</time></trkpt><trkpt lat="59.4820026029" lon="31.0367834754"><ele>61.07</ele><time>2026-08-31T00:49:51Z</time></trkpt><trkpt lat="59.4819400739" lon="31.0369372834"><ele>61.23</ele><time>2026-08-31T00:50:06Z</time></trkpt><trkpt lat="59.4819357991" lon="31.0368989781"><ele>61.34</ele><time>2026-08-31T00:50:24Z</time></trkpt><trkpt lat="59.4818987511" lon="31.0368669592"><ele>54.92</ele><time>2026-08-31T00:50:58Z</time></trkpt><trkpt lat="59.4818980806" lon="31.0368692223"><ele>62.48</ele><time>2026-08-31T00:50:59Z</time></trkpt><trkpt lat="59.4819023553" lon="31.0368626844"><ele>61.09</ele><time>2026-08-31T00:51:26Z</time></trkpt><trkpt lat="59.4818970747" lon="31.0368969664"><ele>61.38</ele><time>2026-08-31T00:52:08Z</time></trkpt><trkpt lat="59.4818721805" lon="31.0370762553"><ele>61.23</ele><time>2026-08-31T00:52:43Z</time></trkpt><trkpt lat="59.4817503914" lon="31.0372997168"><ele>61.46</ele><time>2026-08-31T00:53:02Z</time></trkpt><trkpt lat="59.4817007706" lon="31.0374055803"><ele>61.44</ele><time>2026-08-31T00:53:18Z</time></trkpt><trkpt lat="59.4815516565" lon="31.0376582947"><ele>61.45</ele><time>2026-08-31T00:53:34Z</time></trkpt><trkpt lat="59.4814773928" lon="31.0377752222"><ele>61.37</ele><time>2026-08-31T00:53:51Z</time></trkpt><trkpt lat="59.4815072324" lon="31.0378596280"><ele>61.29</ele><time>2026-08-31T00:54:11Z</time></trkpt><trkpt lat="59.4814830925" lon="31.0381450318"><ele>61.16</ele><time>2026-08-31T00:54:27Z</time></trkpt><trkpt lat="59.4814667478" lon="31.0382609535"><ele>60.98</ele><time>2026-08-31T00:54:47Z</time></trkpt><trkpt lat="59.4814643171" lon="31.0384619515"><ele>60.75</ele><time>2026-08-31T00:55:05Z</time></trkpt><trkpt lat="59.4813120179" lon="31.0384261608"><ele>60.66</ele><time>2026-08-31T00:55:20Z</time></trkpt><trkpt lat="59.4812508300" lon="31.0382363945"><ele>60.64</ele><time>2026-08-31T00:55:34Z</time></trkpt><trkpt lat="59.4811665919" lon="31.0381854326"><ele>60.95</ele><time>2026-08-31T00:55:51Z</time></trkpt><trkpt lat="59.4811448827" lon="31.0383342952"><ele>59.99</ele><time>2026-08-31T00:56:08Z</time></trkpt><trkpt lat="59.4812000357" lon="31.0384172760"><ele>60.63</ele><time>2026-08-31T00:56:43Z</time></trkpt><trkpt lat="59.4811308850" lon="31.0384988319"><ele>60.95</ele><time>2026-08-31T00:57:21Z</time></trkpt><trkpt lat="59.4810615666" lon="31.0385617800"><ele>60.99</ele><time>2026-08-31T00:57:35Z</time></trkpt><trkpt lat="59.4809412863" lon="31.0387573298"><ele>61.06</ele><time>2026-08-31T00:57:49Z</time></trkpt><trkpt lat="59.4808379374" lon="31.0389295779"><ele>61.15</ele><time>2026-08-31T00:58:05Z</time></trkpt><trkpt lat="59.4807044975" lon="31.0391436517"><ele>60.90</ele><time>2026-08-31T00:58:26Z</time></trkpt><trkpt lat="59.4805919286" lon="31.0393536184"><ele>61.12</ele><time>2026-08-31T00:58:43Z</time></trkpt><trkpt lat="59.4804710615" lon="31.0395244416"><ele>61.19</ele><time>2026-08-31T00:58:57Z</time></trkpt><trkpt lat="59.4804676250" lon="31.0395651776"><ele>61.38</ele><time>2026-08-31T00:58:58Z</time></trkpt><trkpt lat="59.4803652819" lon="31.0397209972"><ele>61.07</ele><time>2026-08-31T00:59:12Z</time></trkpt><trkpt lat="59.4803097937" lon="31.0399054829"><ele>61.05</ele><time>2026-08-31T00:59:26Z</time></trkpt><trkpt lat="59.4801993202" lon="31.0400493164"><ele>60.79</ele><time>2026-08-31T00:59:40Z</time></trkpt><trkpt lat="59.4801193569" lon="31.0402390826"><ele>60.64</ele><time>2026-08-31T00:59:57Z</time></trkpt><trkpt lat="59.4800444227" lon="31.0403419286"><ele>60.61</ele><time>2026-08-31T01:00:15Z</time></trkpt><trkpt lat="59.4799371343" lon="31.0404831637"><ele>60.45</ele><time>2026-08-31T01:00:31Z</time></trkpt><trkpt lat="59.4799710810" lon="31.0404930543"><ele>60.79</ele><time>2026-08-31T01:00:53Z</time></trkpt><trkpt lat="59.4799374696" lon="31.0405836627"><ele>60.61</ele><time>2026-08-31T01:01:33Z</time></trkpt><trkpt lat="59.4798346236" lon="31.0407597665"><ele>60.44</ele><time>2026-08-31T01:01:48Z</time></trkpt><trkpt lat="59.4797434285" lon="31.0409971420"><ele>60.54</ele><time>2026-08-31T01:02:06Z</time></trkpt><trkpt lat="59.4797047880" lon="31.0412005708"><ele>60.57</ele><time>2026-08-31T01:02:26Z</time></trkpt><trkpt lat="59.4796107430" lon="31.0412943643"><ele>60.36</ele><time>2026-08-31T01:02:41Z</time></trkpt><trkpt lat="59.4795061368" lon="31.0414421372"><ele>60.88</ele><time>2026-08-31T01:03:03Z</time></trkpt><trkpt lat="59.4794706814" lon="31.0415268783"><ele>59.40</ele><time>2026-08-31T01:03:35Z</time></trkpt><trkpt lat="59.4794445299" lon="31.0414861422"><ele>60.20</ele><time>2026-08-31T01:04:13Z</time></trkpt><trkpt lat="59.4794209767" lon="31.0415194184"><ele>60.54</ele><time>2026-08-31T01:04:20Z</time></trkpt><trkpt lat="59.4794211444" lon="31.0415333323"><ele>59.84</ele><time>2026-08-31T01:04:22Z</time></trkpt><trkpt lat="59.4794085715" lon="31.0414781794"><ele>59.70</ele><time>2026-08-31T01:05:02Z</time></trkpt><trkpt lat="59.4794281852" lon="31.0415382776"><ele>59.60</ele><time>2026-08-31T01:05:26Z</time></trkpt><trkpt lat="59.4794326276" lon="31.0415202565"><ele>61.54</ele><time>2026-08-31T01:05:39Z</time></trkpt><trkpt lat="59.4794443622" lon="31.0414576437"><ele>59.97</ele><time>2026-08-31T01:06:21Z</time></trkpt><trkpt lat="59.4794185460" lon="31.0414371919"><ele>58.88</ele><time>2026-08-31T01:06:44Z</time></trkpt><trkpt lat="59.4793789834" lon="31.0413272213"><ele>59.47</ele><time>2026-08-31T01:07:13Z</time></trkpt><trkpt lat="59.4793334696" lon="31.0412542988"><ele>59.35</ele><time>2026-08-31T01:07:32Z</time></trkpt><trkpt lat="59.4793163706" lon="31.0412086174"><ele>58.91</ele><time>2026-08-31T01:07:56Z</time></trkpt><trkpt lat="59.4792226609" lon="31.0413849726"><ele>58.34</ele><time>2026-08-31T01:08:11Z</time></trkpt><trkpt lat="59.4792181347" lon="31.0413943604"><ele>61.88</ele><time>2026-08-31T01:08:12Z</time></trkpt><trkpt lat="59.4792123511" lon="31.0413978808"><ele>61.88</ele><time>2026-08-31T01:08:13Z</time></trkpt><trkpt lat="59.4791799970" lon="31.0413466673"><ele>59.18</ele><time>2026-08-31T01:08:20Z</time></trkpt><trkpt lat="59.4791759737" lon="31.0412452463"><ele>57.77</ele><time>2026-08-31T01:08:27Z</time></trkpt><trkpt lat="59.4791857805" lon="31.0412445758"><ele>57.78</ele><time>2026-08-31T01:08:31Z</time></trkpt><trkpt lat="59.4792035501" lon="31.0412423965"><ele>59.29</ele><time>2026-08-31T01:08:33Z</time></trkpt><trkpt lat="59.4792148657" lon="31.0412270576"><ele>59.34</ele><time>2026-08-31T01:08:39Z</time></trkpt><trkpt lat="59.4791710284" lon="31.0411820468"><ele>57.28</ele><time>2026-08-31T01:08:46Z</time></trkpt><trkpt lat="59.4791672565" lon="31.0411248822"><ele>59.02</ele><time>2026-08-31T01:08:57Z</time></trkpt><trkpt lat="59.4791365787" lon="31.0410779435"><ele>59.56</ele><time>2026-08-31T01:09:08Z</time></trkpt><trkpt lat="59.4791211560" lon="31.0411015805"><ele>60.31</ele><time>2026-08-31T01:09:12Z</time></trkpt><trkpt lat="59.4790812582" lon="31.0410330165"><ele>59.83</ele><time>2026-08-31T01:09:30Z</time></trkpt><trkpt lat="59.4790681824" lon="31.0410160851"><ele>59.79</ele><time>2026-08-31T01:09:32Z</time></trkpt><trkpt lat="59.4789942540" lon="31.0408849083"><ele>59.73</ele><time>2026-08-31T01:09:45Z</time></trkpt><trkpt lat="59.4789505843" lon="31.0407488700"><ele>59.80</ele><time>2026-08-31T01:09:53Z</time></trkpt><trkpt lat="59.4788377639" lon="31.0405086447"><ele>59.83</ele><time>2026-08-31T01:10:07Z</time></trkpt><trkpt lat="59.4787774980" lon="31.0403506458"><ele>59.91</ele><time>2026-08-31T01:10:20Z</time></trkpt><trkpt lat="59.4787541963" lon="31.0403331276"><ele>58.01</ele><time>2026-08-31T01:10:22Z</time></trkpt><trkpt lat="59.4787009712" lon="31.0403267574"><ele>60.02</ele><time>2026-08-31T01:10:43Z</time></trkpt><trkpt lat="59.4786373526" lon="31.0402439442"><ele>60.29</ele><time>2026-08-31T01:11:29Z</time></trkpt><trkpt lat="59.4786326587" lon="31.0402159486"><ele>60.20</ele><time>2026-08-31T01:11:30Z</time></trkpt><trkpt lat="59.4785940181" lon="31.0400705226"><ele>60.36</ele><time>2026-08-31T01:11:36Z</time></trkpt><trkpt lat="59.4785741530" lon="31.0400244221"><ele>60.23</ele><time>2026-08-31T01:11:40Z</time></trkpt><trkpt lat="59.4785319921" lon="31.0399422795"><ele>60.25</ele><time>2026-08-31T01:11:45Z</time></trkpt><trkpt lat="59.4784347620" lon="31.0396771599"><ele>60.13</ele><time>2026-08-31T01:12:00Z</time></trkpt><trkpt lat="59.4783052616" lon="31.0394566320"><ele>58.75</ele><time>2026-08-31T01:12:16Z</time></trkpt><trkpt lat="59.4783195946" lon="31.0394105315"><ele>59.77</ele><time>2026-08-31T01:12:39Z</time></trkpt><trkpt lat="59.4783873204" lon="31.0395357572"><ele>58.66</ele><time>2026-08-31T01:12:45Z</time></trkpt><trkpt lat="59.4784118794" lon="31.0395548679"><ele>60.68</ele><time>2026-08-31T01:12:47Z</time></trkpt><trkpt lat="59.4784229435" lon="31.0395545326"><ele>60.60</ele><time>2026-08-31T01:12:48Z</time></trkpt><trkpt lat="59.4784500170" lon="31.0396034829"><ele>60.85</ele><time>2026-08-31T01:12:54Z</time></trkpt><trkpt lat="59.4784480892" lon="31.0395668540"><ele>60.42</ele><time>2026-08-31T01:13:12Z</time></trkpt><trkpt lat="59.4784424733" lon="31.0396224260"><ele>60.56</ele><time>2026-08-31T01:14:04Z</time></trkpt><trkpt lat="59.4784836285" lon="31.0396167263"><ele>59.69</ele><time>2026-08-31T01:14:35Z</time></trkpt><trkpt lat="59.4786046632" lon="31.0394700430"><ele>60.15</ele><time>2026-08-31T01:14:52Z</time></trkpt><trkpt lat="59.4786225166" lon="31.0392845515"><ele>59.76</ele><time>2026-08-31T01:15:07Z</time></trkpt><trkpt lat="59.4787339959" lon="31.0391998943"><ele>59.71</ele><time>2026-08-31T01:15:23Z</time></trkpt><trkpt lat="59.4788790867" lon="31.0391368624"><ele>59.71</ele><time>2026-08-31T01:15:38Z</time></trkpt><trkpt lat="59.4789331499" lon="31.0390843917"><ele>59.78</ele><time>2026-08-31T01:15:53Z</time></trkpt><trkpt lat="59.4790650811" lon="31.0389410611"><ele>59.44</ele><time>2026-08-31T01:16:10Z</time></trkpt><trkpt lat="59.4791511633" lon="31.0388619360"><ele>59.36</ele><time>2026-08-31T01:16:33Z</time></trkpt><trkpt lat="59.4792225771" lon="31.0388845671"><ele>59.47</ele><time>2026-08-31T01:16:59Z</time></trkpt><trkpt lat="59.4792860281" lon="31.0389292426"><ele>59.12</ele><time>2026-08-31T01:17:14Z</time></trkpt><trkpt lat="59.4794162828" lon="31.0389599204"><ele>59.37</ele><time>2026-08-31T01:17:34Z</time></trkpt><trkpt lat="59.4795178715" lon="31.0389267281"><ele>59.53</ele><time>2026-08-31T01:17:55Z</time></trkpt><trkpt lat="59.4795123395" lon="31.0389031749"><ele>59.02</ele><time>2026-08-31T01:18:31Z</time></trkpt><trkpt lat="59.4794422667" lon="31.0386033542"><ele>60.14</ele><time>2026-08-31T01:18:45Z</time></trkpt><trkpt lat="59.4794327952" lon="31.0385795496"><ele>59.35</ele><time>2026-08-31T01:18:47Z</time></trkpt><trkpt lat="59.4793778937" lon="31.0383106582"><ele>59.76</ele><time>2026-08-31T01:19:08Z</time></trkpt><trkpt lat="59.4793532509" lon="31.0381529946"><ele>59.13</ele><time>2026-08-31T01:19:29Z</time></trkpt><trkpt lat="59.4793417677" lon="31.0378057323"><ele>59.20</ele><time>2026-08-31T01:19:53Z</time></trkpt><trkpt lat="59.4792561885" lon="31.0377132799"><ele>59.52</ele><time>2026-08-31T01:20:50Z</time></trkpt><trkpt lat="59.4792584516" lon="31.0376441292"><ele>59.68</ele><time>2026-08-31T01:21:15Z</time></trkpt><trkpt lat="59.4793401752" lon="31.0373561271"><ele>59.74</ele><time>2026-08-31T01:21:42Z</time></trkpt><trkpt lat="59.4793683384" lon="31.0372241959"><ele>59.73</ele><time>2026-08-31T01:21:59Z</time></trkpt><trkpt lat="59.4793609623" lon="31.0370923486"><ele>59.48</ele><time>2026-08-31T01:22:07Z</time></trkpt><trkpt lat="59.4794344716" lon="31.0370091163"><ele>59.58</ele><time>2026-08-31T01:22:23Z</time></trkpt><trkpt lat="59.4795368984" lon="31.0368738323"><ele>59.56</ele><time>2026-08-31T01:22:45Z</time></trkpt><trkpt lat="59.4796006847" lon="31.0367446672"><ele>59.85</ele><time>2026-08-31T01:23:01Z</time></trkpt><trkpt lat="59.4797014352" lon="31.0366367083"><ele>58.74</ele><time>2026-08-31T01:23:22Z</time></trkpt><trkpt lat="59.4797037821" lon="31.0366355348"><ele>58.75</ele><time>2026-08-31T01:23:23Z</time></trkpt><trkpt lat="59.4797894452" lon="31.0365801305"><ele>59.67</ele><time>2026-08-31T01:23:44Z</time></trkpt><trkpt lat="59.4798755273" lon="31.0365273245"><ele>59.74</ele><time>2026-08-31T01:24:03Z</time></trkpt><trkpt lat="59.4799740985" lon="31.0364237241"><ele>59.34</ele><time>2026-08-31T01:24:22Z</time></trkpt><trkpt lat="59.4800583366" lon="31.0363416653"><ele>59.59</ele><time>2026-08-31T01:24:35Z</time></trkpt><trkpt lat="59.4801364560" lon="31.0363353789"><ele>59.29</ele><time>2026-08-31T01:24:50Z</time></trkpt><trkpt lat="59.4802017510" lon="31.0364035238"><ele>59.58</ele><time>2026-08-31T01:25:08Z</time></trkpt><trkpt lat="59.4802450854" lon="31.0363775399"><ele>59.46</ele><time>2026-08-31T01:25:13Z</time></trkpt><trkpt lat="59.4803378731" lon="31.0363733489"><ele>59.08</ele><time>2026-08-31T01:25:36Z</time></trkpt><trkpt lat="59.4804161601" lon="31.0364653822"><ele>59.09</ele><time>2026-08-31T01:25:59Z</time></trkpt><trkpt lat="59.4804052636" lon="31.0364891868"><ele>59.97</ele><time>2026-08-31T01:26:14Z</time></trkpt><trkpt lat="59.4804317504" lon="31.0364948865"><ele>58.92</ele><time>2026-08-31T01:26:27Z</time></trkpt><trkpt lat="59.4804907590" lon="31.0364594311"><ele>59.02</ele><time>2026-08-31T01:26:43Z</time></trkpt><trkpt lat="59.4805875700" lon="31.0364906956"><ele>58.97</ele><time>2026-08-31T01:26:58Z</time></trkpt><trkpt lat="59.4806416333" lon="31.0364157613"><ele>59.19</ele><time>2026-08-31T01:27:18Z</time></trkpt><trkpt lat="59.4807776716" lon="31.0364426672"><ele>58.57</ele><time>2026-08-31T01:27:37Z</time></trkpt><trkpt lat="59.4807857182" lon="31.0364203714"><ele>60.57</ele><time>2026-08-31T01:27:45Z</time></trkpt><trkpt lat="59.4808148872" lon="31.0363899451"><ele>58.83</ele><time>2026-08-31T01:27:51Z</time></trkpt><trkpt lat="59.4808533601" lon="31.0362850875"><ele>58.80</ele><time>2026-08-31T01:28:13Z</time></trkpt><trkpt lat="59.4808640890" lon="31.0360906273"><ele>60.10</ele><time>2026-08-31T01:28:31Z</time></trkpt><trkpt lat="59.4808180723" lon="31.0358669981"><ele>58.87</ele><time>2026-08-31T01:28:46Z</time></trkpt><trkpt lat="59.4808443915" lon="31.0356190614"><ele>57.64</ele><time>2026-08-31T01:29:02Z</time></trkpt><trkpt lat="59.4807815272" lon="31.0354247689"><ele>58.93</ele><time>2026-08-31T01:29:23Z</time></trkpt><trkpt lat="59.4808496721" lon="31.0352096893"><ele>59.38</ele><time>2026-08-31T01:29:38Z</time></trkpt><trkpt lat="59.4808601495" lon="31.0351944342"><ele>58.86</ele><time>2026-08-31T01:29:59Z</time></trkpt><trkpt lat="59.4809363410" lon="31.0349144787"><ele>58.95</ele><time>2026-08-31T01:30:15Z</time></trkpt><trkpt lat="59.4809714612" lon="31.0348103754"><ele>58.80</ele><time>2026-08-31T01:30:23Z</time></trkpt><trkpt lat="59.4810403604" lon="31.0347338486"><ele>58.88</ele><time>2026-08-31T01:30:32Z</time></trkpt><trkpt lat="59.4811694417" lon="31.0345148295"><ele>59.08</ele><time>2026-08-31T01:30:50Z</time></trkpt><trkpt lat="59.4811891392" lon="31.0344788712"><ele>58.88</ele><time>2026-08-31T01:30:53Z</time></trkpt><trkpt lat="59.4812023826" lon="31.0344471876"><ele>60.71</ele><time>2026-08-31T01:30:55Z</time></trkpt><trkpt lat="59.4812174700" lon="31.0344261490"><ele>57.86</ele><time>2026-08-31T01:30:59Z</time></trkpt><trkpt lat="59.4812193979" lon="31.0344380513"><ele>59.60</ele><time>2026-08-31T01:31:02Z</time></trkpt><trkpt lat="59.4812326413" lon="31.0346006602"><ele>58.66</ele><time>2026-08-31T01:31:32Z</time></trkpt><trkpt lat="59.4812420290" lon="31.0345626902"><ele>57.67</ele><time>2026-08-31T01:32:13Z</time></trkpt><trkpt lat="59.4812591281" lon="31.0342953913"><ele>59.19</ele><time>2026-08-31T01:32:35Z</time></trkpt><trkpt lat="59.4813492335" lon="31.0341349617"><ele>60.21</ele><time>2026-08-31T01:32:49Z</time></trkpt><trkpt lat="59.4814210664" lon="31.0340992548"><ele>58.89</ele><time>2026-08-31T01:33:11Z</time></trkpt><trkpt lat="59.4815115910" lon="31.0338945687"><ele>58.94</ele><time>2026-08-31T01:33:32Z</time></trkpt><trkpt lat="59.4815221522" lon="31.0338090733"><ele>60.68</ele><time>2026-08-31T01:33:35Z</time></trkpt><trkpt lat="59.4815348089" lon="31.0337194707"><ele>58.99</ele><time>2026-08-31T01:33:42Z</time></trkpt><trkpt lat="59.4815444481" lon="31.0336637311"><ele>59.03</ele><time>2026-08-31T01:33:46Z</time></trkpt><trkpt lat="59.4816937298" lon="31.0335547663"><ele>58.89</ele><time>2026-08-31T01:34:05Z</time></trkpt><trkpt lat="59.4817566779" lon="31.0335115995"><ele>59.40</ele><time>2026-08-31T01:34:17Z</time></trkpt><trkpt lat="59.4818680733" lon="31.0332909878"><ele>59.54</ele><time>2026-08-31T01:34:38Z</time></trkpt><trkpt lat="59.4819639623" lon="31.0330401175"><ele>59.35</ele><time>2026-08-31T01:34:54Z</time></trkpt><trkpt lat="59.4820614439" lon="31.0329370201"><ele>59.25</ele><time>2026-08-31T01:35:09Z</time></trkpt><trkpt lat="59.4820284192" lon="31.0328335874"><ele>59.31</ele><time>2026-08-31T01:35:36Z</time></trkpt><trkpt lat="59.4821110647" lon="31.0326582380"><ele>59.50</ele><time>2026-08-31T01:36:09Z</time></trkpt><trkpt lat="59.4821626972" lon="31.0324974731"><ele>59.51</ele><time>2026-08-31T01:36:25Z</time></trkpt><trkpt lat="59.4822139945" lon="31.0323827248"><ele>60.07</ele><time>2026-08-31T01:36:41Z</time></trkpt><trkpt lat="59.4823015854" lon="31.0321381409"><ele>59.04</ele><time>2026-08-31T01:37:04Z</time></trkpt><trkpt lat="59.4823250547" lon="31.0319506377"><ele>59.25</ele><time>2026-08-31T01:37:13Z</time></trkpt><trkpt lat="59.4823997375" lon="31.0318157729"><ele>59.27</ele><time>2026-08-31T01:37:29Z</time></trkpt><trkpt lat="59.4824985601" lon="31.0316774715"><ele>59.06</ele><time>2026-08-31T01:37:48Z</time></trkpt><trkpt lat="59.4825666212" lon="31.0315740388"><ele>59.23</ele><time>2026-08-31T01:37:55Z</time></trkpt><trkpt lat="59.4826429803" lon="31.0314718634"><ele>59.19</ele><time>2026-08-31T01:38:12Z</time></trkpt><trkpt lat="59.4827225246" lon="31.0313573666"><ele>59.35</ele><time>2026-08-31T01:38:32Z</time></trkpt><trkpt lat="59.4827339239" lon="31.0314679239"><ele>59.26</ele><time>2026-08-31T01:39:15Z</time></trkpt><trkpt lat="59.4827617519" lon="31.0314638168"><ele>59.50</ele><time>2026-08-31T01:40:24Z</time></trkpt><trkpt lat="59.4827785995" lon="31.0314302053"><ele>59.61</ele><time>2026-08-31T01:41:25Z</time></trkpt><trkpt lat="59.4827458262" lon="31.0313288681"><ele>59.48</ele><time>2026-08-31T01:41:50Z</time></trkpt><trkpt lat="59.4828154799" lon="31.0313176364"><ele>60.11</ele><time>2026-08-31T01:42:09Z</time></trkpt><trkpt lat="59.4828235265" lon="31.0311872978"><ele>59.85</ele><time>2026-08-31T01:42:50Z</time></trkpt><trkpt lat="59.4829336647" lon="31.0309354216"><ele>60.24</ele><time>2026-08-31T01:43:13Z</time></trkpt><trkpt lat="59.4830852095" lon="31.0307660233"><ele>60.42</ele><time>2026-08-31T01:43:37Z</time></trkpt><trkpt lat="59.4831792545" lon="31.0305401310"><ele>60.40</ele><time>2026-08-31T01:43:53Z</time></trkpt><trkpt lat="59.4832277857" lon="31.0303903464"><ele>60.37</ele><time>2026-08-31T01:44:10Z</time></trkpt><trkpt lat="59.4833097607" lon="31.0301804636"><ele>60.28</ele><time>2026-08-31T01:44:31Z</time></trkpt><trkpt lat="59.4833721220" lon="31.0299896915"><ele>60.51</ele><time>2026-08-31T01:44:49Z</time></trkpt><trkpt lat="59.4833692722" lon="31.0299067944"><ele>60.72</ele><time>2026-08-31T01:45:09Z</time></trkpt><trkpt lat="59.4833763968" lon="31.0298441816"><ele>60.41</ele><time>2026-08-31T01:45:35Z</time></trkpt><trkpt lat="59.4833879638" lon="31.0297965724"><ele>59.43</ele><time>2026-08-31T01:46:20Z</time></trkpt><trkpt lat="59.4834098406" lon="31.0298242327"><ele>59.46</ele><time>2026-08-31T01:47:08Z</time></trkpt><trkpt lat="59.4834329747" lon="31.0298773739"><ele>59.62</ele><time>2026-08-31T01:48:02Z</time></trkpt><trkpt lat="59.4833674282" lon="31.0298922937"><ele>59.89</ele><time>2026-08-31T01:48:51Z</time></trkpt><trkpt lat="59.4833636563" lon="31.0299366340"><ele>60.26</ele><time>2026-08-31T01:49:33Z</time></trkpt><trkpt lat="59.4834043924" lon="31.0299254023"><ele>60.36</ele><time>2026-08-31T01:50:19Z</time></trkpt><trkpt lat="59.4834009558" lon="31.0299294256"><ele>60.40</ele><time>2026-08-31T01:50:41Z</time></trkpt><trkpt lat="59.4833714515" lon="31.0299679823"><ele>60.19</ele><time>2026-08-31T01:51:06Z</time></trkpt><trkpt lat="59.4833633211" lon="31.0299943853"><ele>60.53</ele><time>2026-08-31T01:51:31Z</time></trkpt><trkpt lat="59.4833918195" lon="31.0299599357"><ele>60.44</ele><time>2026-08-31T01:51:52Z</time></trkpt><trkpt lat="59.4833986927" lon="31.0298891924"><ele>60.48</ele><time>2026-08-31T01:52:23Z</time></trkpt><trkpt lat="59.4834093377" lon="31.0298914555"><ele>60.62</ele><time>2026-08-31T01:52:55Z</time></trkpt><trkpt lat="59.4833915681" lon="31.0298603587"><ele>60.67</ele><time>2026-08-31T01:53:33Z</time></trkpt><trkpt lat="59.4833721220" lon="31.0298444331"><ele>60.46</ele><time>2026-08-31T01:54:12Z</time></trkpt><trkpt lat="59.4833829347" lon="31.0298401583"><ele>60.39</ele><time>2026-08-31T01:54:35Z</time></trkpt><trkpt lat="59.4833156280" lon="31.0298106540"><ele>60.28</ele><time>2026-08-31T01:54:57Z</time></trkpt><trkpt lat="59.4833228365" lon="31.0297880229"><ele>60.09</ele><time>2026-08-31T01:55:24Z</time></trkpt><trkpt lat="59.4833717868" lon="31.0298292618"><ele>60.12</ele><time>2026-08-31T01:55:44Z</time></trkpt><trkpt lat="59.4833634887" lon="31.0299128294"><ele>60.23</ele><time>2026-08-31T01:56:07Z</time></trkpt><trkpt lat="59.4834562764" lon="31.0298884381"><ele>60.11</ele><time>2026-08-31T01:56:31Z</time></trkpt><trkpt lat="59.4834675081" lon="31.0298555810"><ele>60.09</ele><time>2026-08-31T01:56:54Z</time></trkpt><trkpt lat="59.4834334776" lon="31.0298754461"><ele>59.96</ele><time>2026-08-31T01:57:19Z</time></trkpt><trkpt lat="59.4834041409" lon="31.0299357958"><ele>59.86</ele><time>2026-08-31T01:57:46Z</time></trkpt><trkpt lat="59.4834070746" lon="31.0298186168"><ele>59.60</ele><time>2026-08-31T01:58:18Z</time></trkpt><trkpt lat="59.4834376685" lon="31.0298444331"><ele>59.71</ele><time>2026-08-31T01:58:50Z</time></trkpt><trkpt lat="59.4834538456" lon="31.0299252346"><ele>59.62</ele><time>2026-08-31T01:59:21Z</time></trkpt><trkpt lat="59.4834209885" lon="31.0298563354"><ele>59.78</ele><time>2026-08-31T01:59:45Z</time></trkpt><trkpt lat="59.4834250957" lon="31.0298937187"><ele>59.72</ele><time>2026-08-31T02:00:14Z</time></trkpt><trkpt lat="59.4834055658" lon="31.0298990831"><ele>59.68</ele><time>2026-08-31T02:00:35Z</time></trkpt><trkpt lat="59.4834461343" lon="31.0298012663"><ele>59.70</ele><time>2026-08-31T02:01:10Z</time></trkpt><trkpt lat="59.4835096691" lon="31.0298117436"><ele>59.66</ele><time>2026-08-31T02:02:05Z</time></trkpt><trkpt lat="59.4834475592" lon="31.0298190359"><ele>59.89</ele><time>2026-08-31T02:02:46Z</time></trkpt><trkpt lat="59.4833930768" lon="31.0297884420"><ele>60.03</ele><time>2026-08-31T02:03:17Z</time></trkpt><trkpt lat="59.4833831862" lon="31.0299260728"><ele>59.94</ele><time>2026-08-31T02:04:01Z</time></trkpt><trkpt lat="59.4833491556" lon="31.0299043637"><ele>60.13</ele><time>2026-08-31T02:04:51Z</time></trkpt><trkpt lat="59.4833356608" lon="31.0299551580"><ele>60.49</ele><time>2026-08-31T02:05:32Z</time></trkpt><trkpt lat="59.4834694359" lon="31.0300242249"><ele>61.16</ele><time>2026-08-31T02:06:39Z</time></trkpt><trkpt lat="59.4834649935" lon="31.0299981572"><ele>62.22</ele><time>2026-08-31T02:07:55Z</time></trkpt><trkpt lat="59.4833709486" lon="31.0299429204"><ele>63.91</ele><time>2026-08-31T02:08:38Z</time></trkpt><trkpt lat="59.4833683502" lon="31.0298662260"><ele>64.19</ele><time>2026-08-31T02:09:11Z</time></trkpt><trkpt lat="59.4833460543" lon="31.0298711713"><ele>60.48</ele><time>2026-08-31T02:09:26Z</time></trkpt><trkpt lat="59.4833451323" lon="31.0298790503"><ele>67.03</ele><time>2026-08-31T02:09:27Z</time></trkpt><trkpt lat="59.4833425339" lon="31.0298818164"><ele>65.25</ele><time>2026-08-31T02:09:28Z</time></trkpt><trkpt lat="59.4833427854" lon="31.0298701655"><ele>62.40</ele><time>2026-08-31T02:09:53Z</time></trkpt><trkpt lat="59.4833036419" lon="31.0298304353"><ele>65.86</ele><time>2026-08-31T02:10:05Z</time></trkpt><trkpt lat="59.4833197352" lon="31.0299296770"><ele>64.56</ele><time>2026-08-31T02:10:42Z</time></trkpt><trkpt lat="59.4833253510" lon="31.0298473667"><ele>64.72</ele><time>2026-08-31T02:11:19Z</time></trkpt><trkpt lat="59.4833536819" lon="31.0299239773"><ele>64.93</ele><time>2026-08-31T02:12:10Z</time></trkpt><trkpt lat="59.4833410252" lon="31.0298261605"><ele>65.53</ele><time>2026-08-31T02:13:23Z</time></trkpt><trkpt lat="59.4833158795" lon="31.0296026990"><ele>65.50</ele><time>2026-08-31T02:13:38Z</time></trkpt><trkpt lat="59.4832518417" lon="31.0294118430"><ele>65.74</ele><time>2026-08-31T02:13:55Z</time></trkpt><trkpt lat="59.4832388498" lon="31.0293217376"><ele>65.69</ele><time>2026-08-31T02:14:18Z</time></trkpt><trkpt lat="59.4831524324" lon="31.0292371642"><ele>65.70</ele><time>2026-08-31T02:14:39Z</time></trkpt><trkpt lat="59.4830829464" lon="31.0289958492"><ele>65.77</ele><time>2026-08-31T02:14:54Z</time></trkpt><trkpt lat="59.4830338284" lon="31.0288134590"><ele>65.59</ele><time>2026-08-31T02:15:12Z</time></trkpt><trkpt lat="59.4829944335" lon="31.0285962839"><ele>65.43</ele><time>2026-08-31T02:15:30Z</time></trkpt><trkpt lat="59.4830163941" lon="31.0284074396"><ele>66.25</ele><time>2026-08-31T02:15:47Z</time></trkpt><trkpt lat="59.4829500932" lon="31.0284324177"><ele>65.08</ele><time>2026-08-31T02:16:11Z</time></trkpt><trkpt lat="59.4828518573" lon="31.0283780191"><ele>65.52</ele><time>2026-08-31T02:16:28Z</time></trkpt><trkpt lat="59.4827773422" lon="31.0283895861"><ele>65.10</ele><time>2026-08-31T02:16:44Z</time></trkpt><trkpt lat="59.4827070180" lon="31.0282941163"><ele>65.30</ele><time>2026-08-31T02:17:00Z</time></trkpt><trkpt lat="59.4827275537" lon="31.0280265659"><ele>64.42</ele><time>2026-08-31T02:17:14Z</time></trkpt><trkpt lat="59.4827494305" lon="31.0279840697"><ele>66.26</ele><time>2026-08-31T02:17:20Z</time></trkpt><trkpt lat="59.4827355165" lon="31.0279878415"><ele>64.51</ele><time>2026-08-31T02:17:24Z</time></trkpt><trkpt lat="59.4825855643" lon="31.0280045215"><ele>65.13</ele><time>2026-08-31T02:17:41Z</time></trkpt><trkpt lat="59.4825843908" lon="31.0280755162"><ele>65.93</ele><time>2026-08-31T02:18:40Z</time></trkpt><trkpt lat="59.4825854804" lon="31.0280743428"><ele>65.86</ele><time>2026-08-31T02:18:41Z</time></trkpt><trkpt lat="59.4826144818" lon="31.0279639531"><ele>65.14</ele><time>2026-08-31T02:19:05Z</time></trkpt><trkpt lat="59.4826102909" lon="31.0279524699"><ele>65.00</ele><time>2026-08-31T02:19:50Z</time></trkpt><trkpt lat="59.4825258851" lon="31.0281000752"><ele>64.87</ele><time>2026-08-31T02:20:11Z</time></trkpt><trkpt lat="59.4825156592" lon="31.0283116344"><ele>64.83</ele><time>2026-08-31T02:20:24Z</time></trkpt><trkpt lat="59.4824685529" lon="31.0284879897"><ele>65.10</ele><time>2026-08-31T02:20:40Z</time></trkpt><trkpt lat="59.4824223686" lon="31.0286360979"><ele>64.99</ele><time>2026-08-31T02:21:00Z</time></trkpt><trkpt lat="59.4822831452" lon="31.0288198292"><ele>64.89</ele><time>2026-08-31T02:21:19Z</time></trkpt><trkpt lat="59.4822328538" lon="31.0289758164"><ele>65.19</ele><time>2026-08-31T02:21:38Z</time></trkpt><trkpt lat="59.4822192751" lon="31.0291013774"><ele>64.64</ele><time>2026-08-31T02:21:57Z</time></trkpt><trkpt lat="59.4822805468" lon="31.0293649044"><ele>65.35</ele><time>2026-08-31T02:22:12Z</time></trkpt><trkpt lat="59.4822908565" lon="31.0293972585"><ele>64.42</ele><time>2026-08-31T02:22:14Z</time></trkpt><trkpt lat="59.4821761921" lon="31.0293487273"><ele>64.53</ele><time>2026-08-31T02:22:29Z</time></trkpt><trkpt lat="59.4820777886" lon="31.0292165447"><ele>64.33</ele><time>2026-08-31T02:22:43Z</time></trkpt><trkpt lat="59.4820637908" lon="31.0292677581"><ele>63.86</ele><time>2026-08-31T02:23:15Z</time></trkpt><trkpt lat="59.4820536487" lon="31.0292969272"><ele>63.79</ele><time>2026-08-31T02:23:43Z</time></trkpt><trkpt lat="59.4820952229" lon="31.0293247551"><ele>63.02</ele><time>2026-08-31T02:24:17Z</time></trkpt><trkpt lat="59.4821223803" lon="31.0293216538"><ele>62.86</ele><time>2026-08-31T02:24:56Z</time></trkpt><trkpt lat="59.4820867572" lon="31.0293509066"><ele>63.37</ele><time>2026-08-31T02:25:28Z</time></trkpt><trkpt lat="59.4820826501" lon="31.0294897947"><ele>63.94</ele><time>2026-08-31T02:25:51Z</time></trkpt><trkpt lat="59.4820754416" lon="31.0295511503"><ele>63.36</ele><time>2026-08-31T02:26:00Z</time></trkpt><trkpt lat="59.4820679817" lon="31.0296435189"><ele>63.43</ele><time>2026-08-31T02:26:14Z</time></trkpt><trkpt lat="59.4819626212" lon="31.0296876915"><ele>63.55</ele><time>2026-08-31T02:26:33Z</time></trkpt><trkpt lat="59.4818901177" lon="31.0295867734"><ele>63.61</ele><time>2026-08-31T02:26:48Z</time></trkpt><trkpt lat="59.4818962365" lon="31.0295482166"><ele>63.70</ele><time>2026-08-31T02:27:12Z</time></trkpt><trkpt lat="59.4819282554" lon="31.0295444448"><ele>63.31</ele><time>2026-08-31T02:27:59Z</time></trkpt><trkpt lat="59.4818606973" lon="31.0296158586"><ele>63.11</ele><time>2026-08-31T02:28:32Z</time></trkpt><trkpt lat="59.4817768782" lon="31.0297151841"><ele>62.61</ele><time>2026-08-31T02:29:10Z</time></trkpt><trkpt lat="59.4816518202" lon="31.0297739413"><ele>62.68</ele><time>2026-08-31T02:29:29Z</time></trkpt><trkpt lat="59.4816279318" lon="31.0299712513"><ele>62.27</ele><time>2026-08-31T02:29:50Z</time></trkpt><trkpt lat="59.4815082382" lon="31.0301686451"><ele>62.61</ele><time>2026-08-31T02:30:11Z</time></trkpt><trkpt lat="59.4814420212" lon="31.0302593373"><ele>62.50</ele><time>2026-08-31T02:30:26Z</time></trkpt><trkpt lat="59.4814278558" lon="31.0304330941"><ele>62.26</ele><time>2026-08-31T02:30:41Z</time></trkpt><trkpt lat="59.4813378341" lon="31.0305867344"><ele>62.26</ele><time>2026-08-31T02:30:59Z</time></trkpt><trkpt lat="59.4812433701" lon="31.0307032429"><ele>62.05</ele><time>2026-08-31T02:31:15Z</time></trkpt><trkpt lat="59.4811475649" lon="31.0309067555"><ele>62.03</ele><time>2026-08-31T02:31:32Z</time></trkpt><trkpt lat="59.4810727984" lon="31.0310909897"><ele>62.07</ele><time>2026-08-31T02:31:47Z</time></trkpt><trkpt lat="59.4810707867" lon="31.0310940910"><ele>61.90</ele><time>2026-08-31T02:31:48Z</time></trkpt><trkpt lat="59.4810197409" lon="31.0313342325"><ele>62.56</ele><time>2026-08-31T02:32:07Z</time></trkpt><trkpt lat="59.4810502511" lon="31.0313341487"><ele>61.95</ele><time>2026-08-31T02:32:41Z</time></trkpt><trkpt lat="59.4810114428" lon="31.0314393416"><ele>61.86</ele><time>2026-08-31T02:33:02Z</time></trkpt><trkpt lat="59.4808499236" lon="31.0315910541"><ele>61.94</ele><time>2026-08-31T02:33:17Z</time></trkpt><trkpt lat="59.4807481673" lon="31.0317217279"><ele>61.64</ele><time>2026-08-31T02:33:31Z</time></trkpt><trkpt lat="59.4806721434" lon="31.0319945589"><ele>61.44</ele><time>2026-08-31T02:33:48Z</time></trkpt><trkpt lat="59.4805979636" lon="31.0322499555"><ele>61.38</ele><time>2026-08-31T02:34:04Z</time></trkpt><trkpt lat="59.4805216044" lon="31.0324523784"><ele>61.44</ele><time>2026-08-31T02:34:18Z</time></trkpt><trkpt lat="59.4804433174" lon="31.0325656179"><ele>60.93</ele><time>2026-08-31T02:34:39Z</time></trkpt><trkpt lat="59.4803761784" lon="31.0325373709"><ele>61.26</ele><time>2026-08-31T02:34:51Z</time></trkpt><trkpt lat="59.4803790282" lon="31.0325355269"><ele>61.16</ele><time>2026-08-31T02:35:17Z</time></trkpt><trkpt lat="59.4803779386" lon="31.0325210262"><ele>55.82</ele><time>2026-08-31T02:35:24Z</time></trkpt><trkpt lat="59.4803769328" lon="31.0325193498"><ele>62.95</ele><time>2026-08-31T02:35:25Z</time></trkpt><trkpt lat="59.4803775195" lon="31.0325222835"><ele>64.22</ele><time>2026-08-31T02:35:27Z</time></trkpt><trkpt lat="59.4803779386" lon="31.0325235408"><ele>61.19</ele><time>2026-08-31T02:35:33Z</time></trkpt><trkpt lat="59.4803151581" lon="31.0327104572"><ele>60.90</ele><time>2026-08-31T02:36:11Z</time></trkpt><trkpt lat="59.4802587479" lon="31.0328819510"><ele>60.98</ele><time>2026-08-31T02:36:25Z</time></trkpt><trkpt lat="59.4801717438" lon="31.0329875629"><ele>60.86</ele><time>2026-08-31T02:36:39Z</time></trkpt><trkpt lat="59.4801115617" lon="31.0331214219"><ele>60.92</ele><time>2026-08-31T02:36:55Z</time></trkpt><trkpt lat="59.4799964782" lon="31.0331516806"><ele>60.77</ele><time>2026-08-31T02:37:10Z</time></trkpt><trkpt lat="59.4799093902" lon="31.0332220886"><ele>60.58</ele><time>2026-08-31T02:37:26Z</time></trkpt><trkpt lat="59.4798612781" lon="31.0333537683"><ele>60.45</ele><time>2026-08-31T02:37:42Z</time></trkpt><trkpt lat="59.4798956439" lon="31.0335712787"><ele>60.40</ele><time>2026-08-31T02:37:57Z</time></trkpt><trkpt lat="59.4798872620" lon="31.0335967597"><ele>61.72</ele><time>2026-08-31T02:38:20Z</time></trkpt><trkpt lat="59.4798898604" lon="31.0336024594"><ele>60.67</ele><time>2026-08-31T02:38:22Z</time></trkpt><trkpt lat="59.4798273314" lon="31.0336272698"><ele>60.44</ele><time>2026-08-31T02:38:56Z</time></trkpt><trkpt lat="59.4797237311" lon="31.0336952470"><ele>60.20</ele><time>2026-08-31T02:39:17Z</time></trkpt><trkpt lat="59.4796788879" lon="31.0338326264"><ele>60.30</ele><time>2026-08-31T02:39:30Z</time></trkpt><trkpt lat="59.4795758743" lon="31.0339080635"><ele>60.16</ele><time>2026-08-31T02:39:44Z</time></trkpt><trkpt lat="59.4794981740" lon="31.0340325348"><ele>60.32</ele><time>2026-08-31T02:40:01Z</time></trkpt><trkpt lat="59.4794241618" lon="31.0339841712"><ele>60.22</ele><time>2026-08-31T02:40:19Z</time></trkpt><trkpt lat="59.4793253392" lon="31.0340434313"><ele>60.41</ele><time>2026-08-31T02:40:32Z</time></trkpt><trkpt lat="59.4792358205" lon="31.0342093930"><ele>58.87</ele><time>2026-08-31T02:40:48Z</time></trkpt><trkpt lat="59.4791433681" lon="31.0342615284"><ele>59.96</ele><time>2026-08-31T02:41:05Z</time></trkpt><trkpt lat="59.4790144544" lon="31.0342309345"><ele>59.87</ele><time>2026-08-31T02:41:20Z</time></trkpt><trkpt lat="59.4789084233" lon="31.0342009272"><ele>59.93</ele><time>2026-08-31T02:41:34Z</time></trkpt><trkpt lat="59.4788403623" lon="31.0342239775"><ele>59.99</ele><time>2026-08-31T02:41:46Z</time></trkpt><trkpt lat="59.4787962735" lon="31.0342661384"><ele>59.81</ele><time>2026-08-31T02:41:53Z</time></trkpt><trkpt lat="59.4787303917" lon="31.0343663860"><ele>59.82</ele><time>2026-08-31T02:42:10Z</time></trkpt><trkpt lat="59.4787648413" lon="31.0342799686"><ele>59.72</ele><time>2026-08-31T02:42:34Z</time></trkpt><trkpt lat="59.4787241891" lon="31.0341820680"><ele>59.53</ele><time>2026-08-31T02:42:50Z</time></trkpt><trkpt lat="59.4787359238" lon="31.0342451837"><ele>59.72</ele><time>2026-08-31T02:43:09Z</time></trkpt><trkpt lat="59.4787495025" lon="31.0340809822"><ele>59.63</ele><time>2026-08-31T02:43:24Z</time></trkpt><trkpt lat="59.4787409529" lon="31.0340214707"><ele>59.93</ele><time>2026-08-31T02:43:43Z</time></trkpt><trkpt lat="59.4787420426" lon="31.0339549184"><ele>59.62</ele><time>2026-08-31T02:44:04Z</time></trkpt><trkpt lat="59.4787508436" lon="31.0340583511"><ele>59.84</ele><time>2026-08-31T02:44:27Z</time></trkpt><trkpt lat="59.4787195791" lon="31.0340668168"><ele>59.99</ele><time>2026-08-31T02:44:44Z</time></trkpt><trkpt lat="59.4787546992" lon="31.0339894518"><ele>59.66</ele><time>2026-08-31T02:45:13Z</time></trkpt><trkpt lat="59.4786506798" lon="31.0339724366"><ele>59.74</ele><time>2026-08-31T02:45:35Z</time></trkpt><trkpt lat="59.4785913359" lon="31.0340885259"><ele>60.74</ele><time>2026-08-31T02:45:48Z</time></trkpt><trkpt lat="59.4785927609" lon="31.0342964809"><ele>59.74</ele><time>2026-08-31T02:46:10Z</time></trkpt><trkpt lat="59.4786073454" lon="31.0343993269"><ele>59.52</ele><time>2026-08-31T02:46:17Z</time></trkpt><trkpt lat="59.4786771666" lon="31.0345870815"><ele>59.43</ele><time>2026-08-31T02:46:33Z</time></trkpt><trkpt lat="59.4787183218" lon="31.0348044243"><ele>59.34</ele><time>2026-08-31T02:46:48Z</time></trkpt><trkpt lat="59.4787227642" lon="31.0350836255"><ele>59.78</ele><time>2026-08-31T02:47:03Z</time></trkpt><trkpt lat="59.4787314814" lon="31.0353158880"><ele>59.70</ele><time>2026-08-31T02:47:23Z</time></trkpt><trkpt lat="59.4787417911" lon="31.0353165586"><ele>56.33</ele><time>2026-08-31T02:47:42Z</time></trkpt><trkpt lat="59.4787405338" lon="31.0353190731"><ele>48.71</ele><time>2026-08-31T02:47:43Z</time></trkpt><trkpt lat="59.4787398633" lon="31.0353208333"><ele>64.69</ele><time>2026-08-31T02:47:44Z</time></trkpt><trkpt lat="59.4787393603" lon="31.0353197437"><ele>60.00</ele><time>2026-08-31T02:47:47Z</time></trkpt><trkpt lat="59.4787399471" lon="31.0353142954"><ele>61.26</ele><time>2026-08-31T02:47:48Z</time></trkpt><trkpt lat="59.4787399471" lon="31.0352975316"><ele>59.31</ele><time>2026-08-31T02:47:51Z</time></trkpt><trkpt lat="59.4787070900" lon="31.0352903232"><ele>59.78</ele><time>2026-08-31T02:48:11Z</time></trkpt><trkpt lat="59.4786244445" lon="31.0354329832"><ele>59.75</ele><time>2026-08-31T02:48:27Z</time></trkpt><trkpt lat="59.4785949402" lon="31.0356409382"><ele>59.74</ele><time>2026-08-31T02:48:39Z</time></trkpt><trkpt lat="59.4785883185" lon="31.0356677603"><ele>59.88</ele><time>2026-08-31T02:48:41Z</time></trkpt><trkpt lat="59.4784954470" lon="31.0358449537"><ele>59.89</ele><time>2026-08-31T02:48:55Z</time></trkpt><trkpt lat="59.4783721492" lon="31.0359803215"><ele>59.75</ele><time>2026-08-31T02:49:08Z</time></trkpt><trkpt lat="59.4782843068" lon="31.0360968299"><ele>59.97</ele><time>2026-08-31T02:49:21Z</time></trkpt><trkpt lat="59.4782731589" lon="31.0361253284"><ele>60.04</ele><time>2026-08-31T02:49:24Z</time></trkpt><trkpt lat="59.4782352727" lon="31.0363893583"><ele>59.72</ele><time>2026-08-31T02:49:39Z</time></trkpt><trkpt lat="59.4782024994" lon="31.0364237241"><ele>58.37</ele><time>2026-08-31T02:49:43Z</time></trkpt><trkpt lat="59.4781666249" lon="31.0364674777"><ele>59.80</ele><time>2026-08-31T02:49:48Z</time></trkpt><trkpt lat="59.4781570695" lon="31.0364868399"><ele>59.72</ele><time>2026-08-31T02:49:49Z</time></trkpt><trkpt lat="59.4780429918" lon="31.0366104729"><ele>59.73</ele><time>2026-08-31T02:50:05Z</time></trkpt><trkpt lat="59.4779658783" lon="31.0367301665"><ele>59.85</ele><time>2026-08-31T02:50:21Z</time></trkpt><trkpt lat="59.4778872561" lon="31.0369289853"><ele>59.70</ele><time>2026-08-31T02:50:35Z</time></trkpt><trkpt lat="59.4778377190" lon="31.0370370280"><ele>59.09</ele><time>2026-08-31T02:50:49Z</time></trkpt><trkpt lat="59.4777380582" lon="31.0370660294"><ele>59.48</ele><time>2026-08-31T02:51:07Z</time></trkpt><trkpt lat="59.4776478689" lon="31.0370234493"><ele>59.25</ele><time>2026-08-31T02:51:20Z</time></trkpt><trkpt lat="59.4775786344" lon="31.0370123852"><ele>59.34</ele><time>2026-08-31T02:51:27Z</time></trkpt><trkpt lat="59.4775509741" lon="31.0370349325"><ele>55.62</ele><time>2026-08-31T02:51:30Z</time></trkpt><trkpt lat="59.4775360543" lon="31.0370433982"><ele>61.61</ele><time>2026-08-31T02:51:31Z</time></trkpt><trkpt lat="59.4775313605" lon="31.0370526183"><ele>61.61</ele><time>2026-08-31T02:51:32Z</time></trkpt><trkpt lat="59.4775357191" lon="31.0370731540"><ele>59.15</ele><time>2026-08-31T02:51:37Z</time></trkpt><trkpt lat="59.4775205478" lon="31.0371052567"><ele>59.02</ele><time>2026-08-31T02:51:46Z</time></trkpt><trkpt lat="59.4775268342" lon="31.0372797679"><ele>59.00</ele><time>2026-08-31T02:51:59Z</time></trkpt><trkpt lat="59.4775972422" lon="31.0374242719"><ele>59.10</ele><time>2026-08-31T02:52:16Z</time></trkpt><trkpt lat="59.4776471984" lon="31.0374743957"><ele>57.73</ele><time>2026-08-31T02:52:34Z</time></trkpt><trkpt lat="59.4776597712" lon="31.0374918301"><ele>58.82</ele><time>2026-08-31T02:52:36Z</time></trkpt><trkpt lat="59.4776680693" lon="31.0375395231"><ele>58.83</ele><time>2026-08-31T02:53:13Z</time></trkpt><trkpt lat="59.4776943885" lon="31.0376104340"><ele>58.75</ele><time>2026-08-31T02:53:45Z</time></trkpt><trkpt lat="59.4776993338" lon="31.0375752300"><ele>58.67</ele><time>2026-08-31T02:54:05Z</time></trkpt><trkpt lat="59.4776809774" lon="31.0375793371"><ele>58.34</ele><time>2026-08-31T02:54:47Z</time></trkpt><trkpt lat="59.4776910357" lon="31.0375137907"><ele>58.06</ele><time>2026-08-31T02:55:17Z</time></trkpt><trkpt lat="59.4776663929" lon="31.0375551973"><ele>57.80</ele><time>2026-08-31T02:56:03Z</time></trkpt><trkpt lat="59.4776783790" lon="31.0375311412"><ele>57.81</ele><time>2026-08-31T02:56:30Z</time></trkpt><trkpt lat="59.4776050374" lon="31.0374701209"><ele>57.67</ele><time>2026-08-31T02:56:57Z</time></trkpt><trkpt lat="59.4775975775" lon="31.0374660976"><ele>57.70</ele><time>2026-08-31T02:56:58Z</time></trkpt><trkpt lat="59.4774883613" lon="31.0373035725"><ele>57.71</ele><time>2026-08-31T02:57:12Z</time></trkpt><trkpt lat="59.4774503913" lon="31.0372298956"><ele>58.20</ele><time>2026-08-31T02:57:17Z</time></trkpt><trkpt lat="59.4773606211" lon="31.0370234493"><ele>57.71</ele><time>2026-08-31T02:57:33Z</time></trkpt><trkpt lat="59.4772656541" lon="31.0368383769"><ele>57.59</ele><time>2026-08-31T02:57:48Z</time></trkpt><trkpt lat="59.4772219006" lon="31.0367385484"><ele>57.63</ele><time>2026-08-31T02:58:00Z</time></trkpt><trkpt lat="59.4771923963" lon="31.0366960522"><ele>57.77</ele><time>2026-08-31T02:58:18Z</time></trkpt><trkpt lat="59.4771870319" lon="31.0366829764"><ele>57.71</ele><time>2026-08-31T02:58:47Z</time></trkpt><trkpt lat="59.4771970902" lon="31.0365545657"><ele>57.54</ele><time>2026-08-31T02:59:09Z</time></trkpt><trkpt lat="59.4770713616" lon="31.0363367200"><ele>57.60</ele><time>2026-08-31T02:59:27Z</time></trkpt><trkpt lat="59.4769630674" lon="31.0361145996"><ele>57.59</ele><time>2026-08-31T02:59:42Z</time></trkpt><trkpt lat="59.4768716209" lon="31.0358996876"><ele>57.59</ele><time>2026-08-31T02:59:57Z</time></trkpt><trkpt lat="59.4767875504" lon="31.0357246734"><ele>57.69</ele><time>2026-08-31T03:00:16Z</time></trkpt><trkpt lat="59.4766814355" lon="31.0356959235"><ele>57.47</ele><time>2026-08-31T03:00:34Z</time></trkpt><trkpt lat="59.4766548648" lon="31.0357109271"><ele>57.84</ele><time>2026-08-31T03:01:08Z</time></trkpt><trkpt lat="59.4766569603" lon="31.0356781539"><ele>58.07</ele><time>2026-08-31T03:01:37Z</time></trkpt><trkpt lat="59.4766554516" lon="31.0356951691"><ele>58.09</ele><time>2026-08-31T03:02:15Z</time></trkpt><trkpt lat="59.4766779989" lon="31.0356879607"><ele>57.48</ele><time>2026-08-31T03:02:31Z</time></trkpt><trkpt lat="59.4766950980" lon="31.0357056465"><ele>57.27</ele><time>2026-08-31T03:02:33Z</time></trkpt><trkpt lat="59.4767573755" lon="31.0357104242"><ele>57.53</ele><time>2026-08-31T03:02:52Z</time></trkpt><trkpt lat="59.4768575393" lon="31.0356623959"><ele>55.77</ele><time>2026-08-31T03:03:13Z</time></trkpt><trkpt lat="59.4768700283" lon="31.0356580373"><ele>58.88</ele><time>2026-08-31T03:03:15Z</time></trkpt><trkpt lat="59.4768795837" lon="31.0356543493"><ele>57.67</ele><time>2026-08-31T03:03:16Z</time></trkpt><trkpt lat="59.4769069925" lon="31.0356469732"><ele>57.04</ele><time>2026-08-31T03:03:18Z</time></trkpt><trkpt lat="59.4769246783" lon="31.0356293712"><ele>56.69</ele><time>2026-08-31T03:03:20Z</time></trkpt><trkpt lat="59.4769644924" lon="31.0355513357"><ele>57.64</ele><time>2026-08-31T03:03:26Z</time></trkpt><trkpt lat="59.4770260993" lon="31.0353684425"><ele>57.24</ele><time>2026-08-31T03:03:38Z</time></trkpt><trkpt lat="59.4770930707" lon="31.0351597331"><ele>57.29</ele><time>2026-08-31T03:03:52Z</time></trkpt><trkpt lat="59.4771845173" lon="31.0349716432"><ele>57.29</ele><time>2026-08-31T03:04:04Z</time></trkpt><trkpt lat="59.4772269297" lon="31.0347775184"><ele>57.33</ele><time>2026-08-31T03:04:13Z</time></trkpt><trkpt lat="59.4772502314" lon="31.0347256344"><ele>57.48</ele><time>2026-08-31T03:04:17Z</time></trkpt><trkpt lat="59.4773053844" lon="31.0346948728"><ele>57.19</ele><time>2026-08-31T03:04:24Z</time></trkpt><trkpt lat="59.4774196297" lon="31.0344975628"><ele>57.10</ele><time>2026-08-31T03:04:38Z</time></trkpt><trkpt lat="59.4774518162" lon="31.0344265681"><ele>57.20</ele><time>2026-08-31T03:04:42Z</time></trkpt><trkpt lat="59.4775251579" lon="31.0342454351"><ele>57.15</ele><time>2026-08-31T03:04:58Z</time></trkpt><trkpt lat="59.4775801431" lon="31.0341499653"><ele>57.18</ele><time>2026-08-31T03:05:08Z</time></trkpt><trkpt lat="59.4776599389" lon="31.0339684971"><ele>57.31</ele><time>2026-08-31T03:05:22Z</time></trkpt><trkpt lat="59.4776826538" lon="31.0339588579"><ele>49.91</ele><time>2026-08-31T03:05:43Z</time></trkpt><trkpt lat="59.4776834920" lon="31.0339580197"><ele>61.38</ele><time>2026-08-31T03:05:44Z</time></trkpt><trkpt lat="59.4776840787" lon="31.0339576844"><ele>58.43</ele><time>2026-08-31T03:05:45Z</time></trkpt><trkpt lat="59.4777306821" lon="31.0339478776"><ele>57.14</ele><time>2026-08-31T03:05:57Z</time></trkpt><trkpt lat="59.4777054526" lon="31.0338355601"><ele>57.08</ele><time>2026-08-31T03:06:39Z</time></trkpt><trkpt lat="59.4777347893" lon="31.0337232426"><ele>57.16</ele><time>2026-08-31T03:06:48Z</time></trkpt><trkpt lat="59.4778642897" lon="31.0335755534"><ele>57.09</ele><time>2026-08-31T03:07:02Z</time></trkpt><trkpt lat="59.4778960571" lon="31.0335172992"><ele>57.15</ele><time>2026-08-31T03:07:09Z</time></trkpt><trkpt lat="59.4779638667" lon="31.0334158782"><ele>57.30</ele><time>2026-08-31T03:07:17Z</time></trkpt><trkpt lat="59.4779978134" lon="31.0333787464"><ele>57.35</ele><time>2026-08-31T03:07:20Z</time></trkpt><trkpt lat="59.4780293293" lon="31.0333515890"><ele>57.22</ele><time>2026-08-31T03:07:24Z</time></trkpt><trkpt lat="59.4780527987" lon="31.0332919937"><ele>57.31</ele><time>2026-08-31T03:07:28Z</time></trkpt><trkpt lat="59.4781437423" lon="31.0330734774"><ele>57.25</ele><time>2026-08-31T03:07:41Z</time></trkpt><trkpt lat="59.4781855680" lon="31.0329065938"><ele>57.25</ele><time>2026-08-31T03:07:49Z</time></trkpt><trkpt lat="59.4782210235" lon="31.0328680370"><ele>57.32</ele><time>2026-08-31T03:07:55Z</time></trkpt><trkpt lat="59.4782876596" lon="31.0326486826"><ele>57.20</ele><time>2026-08-31T03:08:10Z</time></trkpt><trkpt lat="59.4783179183" lon="31.0325463396"><ele>57.39</ele><time>2026-08-31T03:08:32Z</time></trkpt><trkpt lat="59.4783740770" lon="31.0323951300"><ele>57.49</ele><time>2026-08-31T03:09:07Z</time></trkpt><trkpt lat="59.4784321636" lon="31.0323201958"><ele>57.46</ele><time>2026-08-31T03:09:13Z</time></trkpt><trkpt lat="59.4785340875" lon="31.0322204512"><ele>57.58</ele><time>2026-08-31T03:09:22Z</time></trkpt><trkpt lat="59.4785711356" lon="31.0320546571"><ele>57.70</ele><time>2026-08-31T03:09:37Z</time></trkpt><trkpt lat="59.4785960298" lon="31.0319776274"><ele>57.90</ele><time>2026-08-31T03:09:49Z</time></trkpt><trkpt lat="59.4785515219" lon="31.0319619533"><ele>58.09</ele><time>2026-08-31T03:10:07Z</time></trkpt><trkpt lat="59.4785213470" lon="31.0318891983"><ele>58.27</ele><time>2026-08-31T03:10:27Z</time></trkpt><trkpt lat="59.4785585627" lon="31.0318409186"><ele>58.36</ele><time>2026-08-31T03:10:32Z</time></trkpt><trkpt lat="59.4786141347" lon="31.0317747854"><ele>58.37</ele><time>2026-08-31T03:10:40Z</time></trkpt><trkpt lat="59.4787018094" lon="31.0316194687"><ele>58.10</ele><time>2026-08-31T03:10:53Z</time></trkpt><trkpt lat="59.4787631650" lon="31.0316130985"><ele>56.99</ele><time>2026-08-31T03:11:10Z</time></trkpt><trkpt lat="59.4787392765" lon="31.0317264218"><ele>57.74</ele><time>2026-08-31T03:11:35Z</time></trkpt><trkpt lat="59.4787011389" lon="31.0318778828"><ele>57.80</ele><time>2026-08-31T03:11:51Z</time></trkpt><trkpt lat="59.4787210878" lon="31.0318262503"><ele>57.56</ele><time>2026-08-31T03:11:54Z</time></trkpt><trkpt lat="59.4787617400" lon="31.0316856857"><ele>57.71</ele><time>2026-08-31T03:12:04Z</time></trkpt><trkpt lat="59.4788137916" lon="31.0315965861"><ele>57.50</ele><time>2026-08-31T03:12:14Z</time></trkpt><trkpt lat="59.4788766559" lon="31.0314873699"><ele>57.33</ele><time>2026-08-31T03:12:21Z</time></trkpt><trkpt lat="59.4789846987" lon="31.0313641559"><ele>57.33</ele><time>2026-08-31T03:12:31Z</time></trkpt><trkpt lat="59.4790030550" lon="31.0313181393"><ele>57.48</ele><time>2026-08-31T03:12:33Z</time></trkpt><trkpt lat="59.4790514186" lon="31.0311476514"><ele>57.47</ele><time>2026-08-31T03:12:45Z</time></trkpt><trkpt lat="59.4791117683" lon="31.0310327355"><ele>57.55</ele><time>2026-08-31T03:13:00Z</time></trkpt><trkpt lat="59.4791965932" lon="31.0309013072"><ele>57.80</ele><time>2026-08-31T03:13:14Z</time></trkpt><trkpt lat="59.4792096689" lon="31.0308729764"><ele>57.79</ele><time>2026-08-31T03:13:16Z</time></trkpt><trkpt lat="59.4792508241" lon="31.0307559650"><ele>57.89</ele><time>2026-08-31T03:13:29Z</time></trkpt><trkpt lat="59.4792913925" lon="31.0306999739"><ele>57.74</ele><time>2026-08-31T03:13:47Z</time></trkpt><trkpt lat="59.4792844355" lon="31.0306948610"><ele>47.86</ele><time>2026-08-31T03:13:57Z</time></trkpt><trkpt lat="59.4792849384" lon="31.0306939390"><ele>63.77</ele><time>2026-08-31T03:13:58Z</time></trkpt><trkpt lat="59.4792855252" lon="31.0306938551"><ele>60.78</ele><time>2026-08-31T03:13:59Z</time></trkpt><trkpt lat="59.4792815857" lon="31.0306975432"><ele>58.63</ele><time>2026-08-31T03:14:02Z</time></trkpt><trkpt lat="59.4792782329" lon="31.0306624230"><ele>57.39</ele><time>2026-08-31T03:14:20Z</time></trkpt><trkpt lat="59.4793067314" lon="31.0306263808"><ele>57.41</ele><time>2026-08-31T03:14:24Z</time></trkpt><trkpt lat="59.4793706015" lon="31.0305171646"><ele>57.37</ele><time>2026-08-31T03:14:35Z</time></trkpt><trkpt lat="59.4793559331" lon="31.0304596648"><ele>57.25</ele><time>2026-08-31T03:14:36Z</time></trkpt><trkpt lat="59.4793537538" lon="31.0303803720"><ele>57.48</ele><time>2026-08-31T03:14:39Z</time></trkpt><trkpt lat="59.4793876167" lon="31.0303229559"><ele>57.23</ele><time>2026-08-31T03:14:55Z</time></trkpt><trkpt lat="59.4793596212" lon="31.0302961338"><ele>57.81</ele><time>2026-08-31T03:15:11Z</time></trkpt><trkpt lat="59.4794342201" lon="31.0302518774"><ele>57.35</ele><time>2026-08-31T03:15:22Z</time></trkpt><trkpt lat="59.4794772193" lon="31.0302263964"><ele>57.54</ele><time>2026-08-31T03:15:37Z</time></trkpt><trkpt lat="59.4795009401" lon="31.0301494505"><ele>57.49</ele><time>2026-08-31T03:15:41Z</time></trkpt><trkpt lat="59.4795365632" lon="31.0300669726"><ele>57.62</ele><time>2026-08-31T03:15:48Z</time></trkpt><trkpt lat="59.4796476234" lon="31.0298882704"><ele>57.01</ele><time>2026-08-31T03:16:02Z</time></trkpt><trkpt lat="59.4796770439" lon="31.0298474506"><ele>57.87</ele><time>2026-08-31T03:16:06Z</time></trkpt><trkpt lat="59.4796860963" lon="31.0298376437"><ele>57.35</ele><time>2026-08-31T03:16:07Z</time></trkpt><trkpt lat="59.4797135890" lon="31.0297894478"><ele>58.11</ele><time>2026-08-31T03:16:10Z</time></trkpt><trkpt lat="59.4797811471" lon="31.0297536571"><ele>57.72</ele><time>2026-08-31T03:16:18Z</time></trkpt><trkpt lat="59.4797903672" lon="31.0297477897"><ele>57.57</ele><time>2026-08-31T03:16:19Z</time></trkpt><trkpt lat="59.4798010960" lon="31.0297435988"><ele>57.33</ele><time>2026-08-31T03:16:20Z</time></trkpt><trkpt lat="59.4798715878" lon="31.0296561755"><ele>57.64</ele><time>2026-08-31T03:16:30Z</time></trkpt><trkpt lat="59.4798827358" lon="31.0296400823"><ele>57.50</ele><time>2026-08-31T03:16:31Z</time></trkpt><trkpt lat="59.4799229689" lon="31.0295895394"><ele>57.57</ele><time>2026-08-31T03:16:36Z</time></trkpt><trkpt lat="59.4799246453" lon="31.0295625497"><ele>57.62</ele><time>2026-08-31T03:16:37Z</time></trkpt><trkpt lat="59.4799294230" lon="31.0295364819"><ele>57.76</ele><time>2026-08-31T03:16:38Z</time></trkpt><trkpt lat="59.4799403194" lon="31.0294816643"><ele>57.68</ele><time>2026-08-31T03:16:41Z</time></trkpt><trkpt lat="59.4799474441" lon="31.0294626374"><ele>57.66</ele><time>2026-08-31T03:16:42Z</time></trkpt><trkpt lat="59.4799578376" lon="31.0294429399"><ele>57.70</ele><time>2026-08-31T03:16:43Z</time></trkpt><trkpt lat="59.4799686503" lon="31.0294233263"><ele>57.64</ele><time>2026-08-31T03:16:44Z</time></trkpt><trkpt lat="59.4800115656" lon="31.0292907245"><ele>57.40</ele><time>2026-08-31T03:16:53Z</time></trkpt><trkpt lat="59.4800219592" lon="31.0292516649"><ele>57.68</ele><time>2026-08-31T03:16:55Z</time></trkpt><trkpt lat="59.4800307602" lon="31.0292299557"><ele>57.69</ele><time>2026-08-31T03:16:56Z</time></trkpt><trkpt lat="59.4800730888" lon="31.0291556921"><ele>57.75</ele><time>2026-08-31T03:17:01Z</time></trkpt><trkpt lat="59.4800801296" lon="31.0291457176"><ele>57.82</ele><time>2026-08-31T03:17:02Z</time></trkpt><trkpt lat="59.4801168423" lon="31.0291132797"><ele>57.71</ele><time>2026-08-31T03:17:05Z</time></trkpt><trkpt lat="59.4802371226" lon="31.0289346613"><ele>57.76</ele><time>2026-08-31T03:17:19Z</time></trkpt><trkpt lat="59.4803170860" lon="31.0288578831"><ele>57.86</ele><time>2026-08-31T03:17:35Z</time></trkpt><trkpt lat="59.4803279825" lon="31.0288496688"><ele>57.85</ele><time>2026-08-31T03:18:10Z</time></trkpt><trkpt lat="59.4803160802" lon="31.0288276244"><ele>57.58</ele><time>2026-08-31T03:18:29Z</time></trkpt><trkpt lat="59.4803397171" lon="31.0287873913"><ele>57.51</ele><time>2026-08-31T03:18:45Z</time></trkpt><trkpt lat="59.4803813752" lon="31.0287929233"><ele>57.27</ele><time>2026-08-31T03:18:59Z</time></trkpt><trkpt lat="59.4804209378" lon="31.0287274607"><ele>57.86</ele><time>2026-08-31T03:19:14Z</time></trkpt><trkpt lat="59.4804459997" lon="31.0287103616"><ele>57.50</ele><time>2026-08-31T03:19:33Z</time></trkpt><trkpt lat="59.4804741628" lon="31.0286478326"><ele>57.59</ele><time>2026-08-31T03:19:40Z</time></trkpt><trkpt lat="59.4805256277" lon="31.0285407957"><ele>57.55</ele><time>2026-08-31T03:19:55Z</time></trkpt><trkpt lat="59.4805367757" lon="31.0284592398"><ele>57.38</ele><time>2026-08-31T03:20:17Z</time></trkpt><trkpt lat="59.4805474207" lon="31.0283825453"><ele>57.33</ele><time>2026-08-31T03:20:36Z</time></trkpt><trkpt lat="59.4805390388" lon="31.0283384565"><ele>57.44</ele><time>2026-08-31T03:20:43Z</time></trkpt><trkpt lat="59.4806102850" lon="31.0281598382"><ele>57.50</ele><time>2026-08-31T03:21:01Z</time></trkpt><trkpt lat="59.4806763344" lon="31.0280681401"><ele>57.67</ele><time>2026-08-31T03:21:12Z</time></trkpt><trkpt lat="59.4806908350" lon="31.0280301701"><ele>57.68</ele><time>2026-08-31T03:21:15Z</time></trkpt><trkpt lat="59.4806958642" lon="31.0280201957"><ele>57.61</ele><time>2026-08-31T03:21:16Z</time></trkpt><trkpt lat="59.4807261229" lon="31.0279246420"><ele>57.41</ele><time>2026-08-31T03:21:32Z</time></trkpt><trkpt lat="59.4807520229" lon="31.0278915334"><ele>57.94</ele><time>2026-08-31T03:21:37Z</time></trkpt><trkpt lat="59.4807625841" lon="31.0278902762"><ele>57.94</ele><time>2026-08-31T03:21:38Z</time></trkpt><trkpt lat="59.4807739835" lon="31.0278875940"><ele>57.71</ele><time>2026-08-31T03:21:39Z</time></trkpt><trkpt lat="59.4808047451" lon="31.0278352909"><ele>58.42</ele><time>2026-08-31T03:21:44Z</time></trkpt><trkpt lat="59.4808156416" lon="31.0277380608"><ele>56.69</ele><time>2026-08-31T03:21:50Z</time></trkpt><trkpt lat="59.4808132108" lon="31.0277197044"><ele>56.58</ele><time>2026-08-31T03:21:51Z</time></trkpt><trkpt lat="59.4808237720" lon="31.0276948940"><ele>57.29</ele><time>2026-08-31T03:21:55Z</time></trkpt><trkpt lat="59.4808302261" lon="31.0276848357"><ele>57.27</ele><time>2026-08-31T03:21:56Z</time></trkpt><trkpt lat="59.4808549527" lon="31.0276418366"><ele>57.25</ele><time>2026-08-31T03:22:00Z</time></trkpt><trkpt lat="59.4808846246" lon="31.0275804810"><ele>57.41</ele><time>2026-08-31T03:22:05Z</time></trkpt><trkpt lat="59.4809224270" lon="31.0275022779"><ele>57.48</ele><time>2026-08-31T03:22:11Z</time></trkpt><trkpt lat="59.4810042344" lon="31.0274958238"><ele>57.75</ele><time>2026-08-31T03:22:26Z</time></trkpt><trkpt lat="59.4810059946" lon="31.0274552554"><ele>57.06</ele><time>2026-08-31T03:23:17Z</time></trkpt><trkpt lat="59.4810227584" lon="31.0274184588"><ele>57.26</ele><time>2026-08-31T03:23:20Z</time></trkpt><trkpt lat="59.4810561184" lon="31.0273693409"><ele>57.30</ele><time>2026-08-31T03:23:25Z</time></trkpt><trkpt lat="59.4810751453" lon="31.0273218993"><ele>57.31</ele><time>2026-08-31T03:23:28Z</time></trkpt><trkpt lat="59.4811477326" lon="31.0272332188"><ele>58.10</ele><time>2026-08-31T03:23:45Z</time></trkpt><trkpt lat="59.4811798353" lon="31.0272559337"><ele>56.93</ele><time>2026-08-31T03:24:30Z</time></trkpt><trkpt lat="59.4812183920" lon="31.0272214841"><ele>56.81</ele><time>2026-08-31T03:24:45Z</time></trkpt><trkpt lat="59.4811919890" lon="31.0271334741"><ele>55.86</ele><time>2026-08-31T03:25:16Z</time></trkpt><trkpt lat="59.4811812602" lon="31.0270559415"><ele>56.04</ele><time>2026-08-31T03:25:35Z</time></trkpt><trkpt lat="59.4811355788" lon="31.0269750562"><ele>56.90</ele><time>2026-08-31T03:26:01Z</time></trkpt><trkpt lat="59.4812051486" lon="31.0268803407"><ele>57.33</ele><time>2026-08-31T03:26:09Z</time></trkpt><trkpt lat="59.4812201522" lon="31.0268704500"><ele>57.37</ele><time>2026-08-31T03:26:10Z</time></trkpt><trkpt lat="59.4812397659" lon="31.0268737189"><ele>57.26</ele><time>2026-08-31T03:26:11Z</time></trkpt><trkpt lat="59.4812751375" lon="31.0268808436"><ele>57.30</ele><time>2026-08-31T03:26:13Z</time></trkpt><trkpt lat="59.4812870398" lon="31.0268726293"><ele>57.18</ele><time>2026-08-31T03:26:14Z</time></trkpt><trkpt lat="59.4812973496" lon="31.0268591344"><ele>57.18</ele><time>2026-08-31T03:26:15Z</time></trkpt><trkpt lat="59.4813521672" lon="31.0268867947"><ele>56.72</ele><time>2026-08-31T03:26:33Z</time></trkpt><trkpt lat="59.4813740440" lon="31.0269902274"><ele>57.07</ele><time>2026-08-31T03:26:51Z</time></trkpt><trkpt lat="59.4813870359" lon="31.0269956756"><ele>58.75</ele><time>2026-08-31T03:27:03Z</time></trkpt><trkpt lat="59.4813730381" lon="31.0269759782"><ele>56.29</ele><time>2026-08-31T03:27:34Z</time></trkpt><trkpt lat="59.4814128522" lon="31.0269567836"><ele>57.06</ele><time>2026-08-31T03:27:54Z</time></trkpt><trkpt lat="59.4814373273" lon="31.0269573703"><ele>57.07</ele><time>2026-08-31T03:27:57Z</time></trkpt><trkpt lat="59.4814713579" lon="31.0269859526"><ele>57.17</ele><time>2026-08-31T03:28:03Z</time></trkpt><trkpt lat="59.4815209787" lon="31.0268872976"><ele>57.29</ele><time>2026-08-31T03:28:14Z</time></trkpt><trkpt lat="59.4815450348" lon="31.0268340725"><ele>57.27</ele><time>2026-08-31T03:28:27Z</time></trkpt><trkpt lat="59.4815514889" lon="31.0268204939"><ele>57.32</ele><time>2026-08-31T03:28:28Z</time></trkpt><trkpt lat="59.4815608766" lon="31.0268033948"><ele>57.01</ele><time>2026-08-31T03:28:29Z</time></trkpt><trkpt lat="59.4815722760" lon="31.0267871339"><ele>56.94</ele><time>2026-08-31T03:28:30Z</time></trkpt><trkpt lat="59.4815816637" lon="31.0267777462"><ele>56.72</ele><time>2026-08-31T03:28:31Z</time></trkpt><trkpt lat="59.4815866929" lon="31.0267575458"><ele>56.70</ele><time>2026-08-31T03:28:32Z</time></trkpt><trkpt lat="59.4816269260" lon="31.0266862996"><ele>57.10</ele><time>2026-08-31T03:28:39Z</time></trkpt><trkpt lat="59.4816743676" lon="31.0266551189"><ele>57.24</ele><time>2026-08-31T03:28:46Z</time></trkpt><trkpt lat="59.4816896226" lon="31.0266580526"><ele>57.26</ele><time>2026-08-31T03:28:48Z</time></trkpt><trkpt lat="59.4817016087" lon="31.0266655125"><ele>57.29</ele><time>2026-08-31T03:28:49Z</time></trkpt><trkpt lat="59.4817627966" lon="31.0267395247"><ele>57.27</ele><time>2026-08-31T03:28:58Z</time></trkpt><trkpt lat="59.4818350486" lon="31.0267637484"><ele>57.14</ele><time>2026-08-31T03:29:15Z</time></trkpt><trkpt lat="59.4818365574" lon="31.0266422946"><ele>57.19</ele><time>2026-08-31T03:29:31Z</time></trkpt><trkpt lat="59.4818507228" lon="31.0266055819"><ele>57.29</ele><time>2026-08-31T03:29:34Z</time></trkpt><trkpt lat="59.4818581827" lon="31.0265689529"><ele>57.28</ele><time>2026-08-31T03:29:38Z</time></trkpt><trkpt lat="59.4819042832" lon="31.0265701264"><ele>57.46</ele><time>2026-08-31T03:29:51Z</time></trkpt><trkpt lat="59.4819114916" lon="31.0265624989"><ele>57.37</ele><time>2026-08-31T03:29:52Z</time></trkpt><trkpt lat="59.4819885213" lon="31.0265195835"><ele>57.49</ele><time>2026-08-31T03:30:00Z</time></trkpt><trkpt lat="59.4820597675" lon="31.0264842957"><ele>57.96</ele><time>2026-08-31T03:30:07Z</time></trkpt><trkpt lat="59.4821180217" lon="31.0264246166"><ele>57.10</ele><time>2026-08-31T03:30:18Z</time></trkpt><trkpt lat="59.4821463525" lon="31.0263895802"><ele>57.40</ele><time>2026-08-31T03:30:21Z</time></trkpt><trkpt lat="59.4821909443" lon="31.0262854770"><ele>57.95</ele><time>2026-08-31T03:30:37Z</time></trkpt><trkpt lat="59.4822258968" lon="31.0261983890"><ele>57.68</ele><time>2026-08-31T03:31:11Z</time></trkpt><trkpt lat="59.4823231269" lon="31.0263344273"><ele>57.73</ele><time>2026-08-31T03:31:25Z</time></trkpt><trkpt lat="59.4823881704" lon="31.0264336690"><ele>57.91</ele><time>2026-08-31T03:31:44Z</time></trkpt><trkpt lat="59.4824397191" lon="31.0264888220"><ele>57.80</ele><time>2026-08-31T03:31:52Z</time></trkpt><trkpt lat="59.4824711513" lon="31.0265403707"><ele>57.78</ele><time>2026-08-31T03:32:01Z</time></trkpt><trkpt lat="59.4825138990" lon="31.0267313942"><ele>58.11</ele><time>2026-08-31T03:32:16Z</time></trkpt><trkpt lat="59.4825108815" lon="31.0267513432"><ele>54.43</ele><time>2026-08-31T03:32:24Z</time></trkpt><trkpt lat="59.4825107977" lon="31.0267520975"><ele>55.33</ele><time>2026-08-31T03:32:25Z</time></trkpt><trkpt lat="59.4825102948" lon="31.0267553665"><ele>61.59</ele><time>2026-08-31T03:32:26Z</time></trkpt><trkpt lat="59.4825113844" lon="31.0267581325"><ele>59.01</ele><time>2026-08-31T03:32:27Z</time></trkpt><trkpt lat="59.4825394638" lon="31.0267977789"><ele>57.65</ele><time>2026-08-31T03:32:51Z</time></trkpt><trkpt lat="59.4825794455" lon="31.0265762452"><ele>57.99</ele><time>2026-08-31T03:33:03Z</time></trkpt><trkpt lat="59.4824683852" lon="31.0262301564"><ele>58.15</ele><time>2026-08-31T03:33:18Z</time></trkpt><trkpt lat="59.4824416470" lon="31.0261044279"><ele>58.22</ele><time>2026-08-31T03:33:23Z</time></trkpt><trkpt lat="59.4824158307" lon="31.0259237979"><ele>57.95</ele><time>2026-08-31T03:33:38Z</time></trkpt><trkpt lat="59.4824693911" lon="31.0258538928"><ele>58.03</ele><time>2026-08-31T03:33:45Z</time></trkpt><trkpt lat="59.4825766794" lon="31.0258262325"><ele>58.16</ele><time>2026-08-31T03:33:55Z</time></trkpt><trkpt lat="59.4826675393" lon="31.0258653760"><ele>58.26</ele><time>2026-08-31T03:34:03Z</time></trkpt><trkpt lat="59.4826883264" lon="31.0258380510"><ele>58.35</ele><time>2026-08-31T03:34:06Z</time></trkpt><trkpt lat="59.4827338401" lon="31.0258124862"><ele>58.39</ele><time>2026-08-31T03:34:11Z</time></trkpt><trkpt lat="59.4827715587" lon="31.0257817246"><ele>58.19</ele><time>2026-08-31T03:34:14Z</time></trkpt><trkpt lat="59.4827513583" lon="31.0256310180"><ele>58.17</ele><time>2026-08-31T03:34:33Z</time></trkpt><trkpt lat="59.4827359356" lon="31.0255433433"><ele>58.23</ele><time>2026-08-31T03:34:46Z</time></trkpt><trkpt lat="59.4827434793" lon="31.0255292617"><ele>58.27</ele><time>2026-08-31T03:34:47Z</time></trkpt><trkpt lat="59.4828464091" lon="31.0253875237"><ele>57.54</ele><time>2026-08-31T03:35:00Z</time></trkpt><trkpt lat="59.4828734826" lon="31.0253656469"><ele>56.21</ele><time>2026-08-31T03:35:03Z</time></trkpt><trkpt lat="59.4829011429" lon="31.0252793971"><ele>58.18</ele><time>2026-08-31T03:35:09Z</time></trkpt><trkpt lat="59.4829217624" lon="31.0253067221"><ele>58.17</ele><time>2026-08-31T03:35:30Z</time></trkpt><trkpt lat="59.4828722253" lon="31.0253760405"><ele>58.21</ele><time>2026-08-31T03:35:43Z</time></trkpt><trkpt lat="59.4828610774" lon="31.0253042914"><ele>58.03</ele><time>2026-08-31T03:36:13Z</time></trkpt><trkpt lat="59.4828545395" lon="31.0253266711"><ele>58.39</ele><time>2026-08-31T03:36:43Z</time></trkpt><trkpt lat="59.4828571379" lon="31.0252233222"><ele>59.20</ele><time>2026-08-31T03:37:06Z</time></trkpt><trkpt lat="59.4828669447" lon="31.0252097435"><ele>59.23</ele><time>2026-08-31T03:37:07Z</time></trkpt><trkpt lat="59.4829146378" lon="31.0251522437"><ele>59.34</ele><time>2026-08-31T03:37:11Z</time></trkpt><trkpt lat="59.4829290546" lon="31.0251457896"><ele>59.41</ele><time>2026-08-31T03:37:12Z</time></trkpt><trkpt lat="59.4829592295" lon="31.0251408443"><ele>59.47</ele><time>2026-08-31T03:37:14Z</time></trkpt><trkpt lat="59.4830523524" lon="31.0251321271"><ele>60.01</ele><time>2026-08-31T03:37:29Z</time></trkpt><trkpt lat="59.4830381870" lon="31.0250616353"><ele>59.89</ele><time>2026-08-31T03:38:03Z</time></trkpt><trkpt lat="59.4830299728" lon="31.0250675865"><ele>55.41</ele><time>2026-08-31T03:38:10Z</time></trkpt><trkpt lat="59.4830295537" lon="31.0250717774"><ele>62.14</ele><time>2026-08-31T03:38:11Z</time></trkpt><trkpt lat="59.4830294698" lon="31.0250801593"><ele>62.15</ele><time>2026-08-31T03:38:12Z</time></trkpt><trkpt lat="59.4830202498" lon="31.0250960849"><ele>60.35</ele><time>2026-08-31T03:38:27Z</time></trkpt><trkpt lat="59.4830174837" lon="31.0251165368"><ele>60.05</ele><time>2026-08-31T03:38:58Z</time></trkpt><trkpt lat="59.4830006361" lon="31.0250913911"><ele>60.00</ele><time>2026-08-31T03:39:00Z</time></trkpt><trkpt lat="59.4829735626" lon="31.0250193905"><ele>60.03</ele><time>2026-08-31T03:39:05Z</time></trkpt><trkpt lat="59.4828902464" lon="31.0248867888"><ele>59.93</ele><time>2026-08-31T03:39:13Z</time></trkpt><trkpt lat="59.4828599878" lon="31.0248075798"><ele>60.02</ele><time>2026-08-31T03:39:16Z</time></trkpt><trkpt lat="59.4828096963" lon="31.0246431269"><ele>60.10</ele><time>2026-08-31T03:39:23Z</time></trkpt><trkpt lat="59.4827993866" lon="31.0246182326"><ele>60.17</ele><time>2026-08-31T03:39:24Z</time></trkpt><trkpt lat="59.4827137236" lon="31.0244791768"><ele>60.12</ele><time>2026-08-31T03:39:32Z</time></trkpt><trkpt lat="59.4826348498" lon="31.0243050847"><ele>60.14</ele><time>2026-08-31T03:39:41Z</time></trkpt><trkpt lat="59.4826272223" lon="31.0242845491"><ele>60.18</ele><time>2026-08-31T03:39:42Z</time></trkpt><trkpt lat="59.4826177508" lon="31.0242581461"><ele>60.32</ele><time>2026-08-31T03:39:43Z</time></trkpt><trkpt lat="59.4826093689" lon="31.0242311563"><ele>60.15</ele><time>2026-08-31T03:39:44Z</time></trkpt><trkpt lat="59.4826006517" lon="31.0242067650"><ele>60.16</ele><time>2026-08-31T03:39:45Z</time></trkpt><trkpt lat="59.4825942814" lon="31.0241863970"><ele>60.14</ele><time>2026-08-31T03:39:46Z</time></trkpt><trkpt lat="59.4825864863" lon="31.0241659451"><ele>60.16</ele><time>2026-08-31T03:39:47Z</time></trkpt><trkpt lat="59.4825792778" lon="31.0241467506"><ele>60.10</ele><time>2026-08-31T03:39:48Z</time></trkpt><trkpt lat="59.4825663697" lon="31.0241135582"><ele>60.09</ele><time>2026-08-31T03:39:50Z</time></trkpt><trkpt lat="59.4825117197" lon="31.0240187589"><ele>60.03</ele><time>2026-08-31T03:39:56Z</time></trkpt><trkpt lat="59.4825030863" lon="31.0239963792"><ele>60.12</ele><time>2026-08-31T03:39:57Z</time></trkpt><trkpt lat="59.4824794494" lon="31.0239451658"><ele>60.00</ele><time>2026-08-31T03:39:59Z</time></trkpt><trkpt lat="59.4824691396" lon="31.0239215288"><ele>60.23</ele><time>2026-08-31T03:40:00Z</time></trkpt><trkpt lat="59.4823302515" lon="31.0236421600"><ele>60.47</ele><time>2026-08-31T03:40:15Z</time></trkpt><trkpt lat="59.4823150802" lon="31.0236144997"><ele>59.96</ele><time>2026-08-31T03:40:17Z</time></trkpt><trkpt lat="59.4822980650" lon="31.0235620290"><ele>60.18</ele><time>2026-08-31T03:40:20Z</time></trkpt><trkpt lat="59.4822226278" lon="31.0234135855"><ele>60.08</ele><time>2026-08-31T03:40:29Z</time></trkpt><trkpt lat="59.4821567461" lon="31.0232039541"><ele>60.34</ele><time>2026-08-31T03:40:42Z</time></trkpt><trkpt lat="59.4821488671" lon="31.0232403316"><ele>56.76</ele><time>2026-08-31T03:40:53Z</time></trkpt><trkpt lat="59.4821487833" lon="31.0232380684"><ele>62.95</ele><time>2026-08-31T03:40:54Z</time></trkpt><trkpt lat="59.4821478613" lon="31.0232356377"><ele>62.95</ele><time>2026-08-31T03:40:55Z</time></trkpt><trkpt lat="59.4821432512" lon="31.0232224781"><ele>59.85</ele><time>2026-08-31T03:41:04Z</time></trkpt><trkpt lat="59.4821427483" lon="31.0232207179"><ele>59.85</ele><time>2026-08-31T03:41:05Z</time></trkpt><trkpt lat="59.4821280800" lon="31.0231483821"><ele>59.67</ele><time>2026-08-31T03:41:23Z</time></trkpt><trkpt lat="59.4821194466" lon="31.0231385753"><ele>59.54</ele><time>2026-08-31T03:41:24Z</time></trkpt><trkpt lat="59.4820542354" lon="31.0230924748"><ele>59.84</ele><time>2026-08-31T03:41:29Z</time></trkpt><trkpt lat="59.4820472784" lon="31.0230566841"><ele>59.92</ele><time>2026-08-31T03:41:31Z</time></trkpt><trkpt lat="59.4819257408" lon="31.0227454640"><ele>60.33</ele><time>2026-08-31T03:41:46Z</time></trkpt><trkpt lat="59.4819063786" lon="31.0227063205"><ele>60.42</ele><time>2026-08-31T03:41:49Z</time></trkpt><trkpt lat="59.4818851724" lon="31.0226315539"><ele>60.35</ele><time>2026-08-31T03:41:52Z</time></trkpt><trkpt lat="59.4818745274" lon="31.0226097610"><ele>60.39</ele><time>2026-08-31T03:41:53Z</time></trkpt><trkpt lat="59.4818229787" lon="31.0224758182"><ele>60.33</ele><time>2026-08-31T03:41:59Z</time></trkpt><trkpt lat="59.4818153512" lon="31.0224509239"><ele>60.24</ele><time>2026-08-31T03:42:00Z</time></trkpt><trkpt lat="59.4817849249" lon="31.0223802645"><ele>60.30</ele><time>2026-08-31T03:42:03Z</time></trkpt><trkpt lat="59.4817382377" lon="31.0222944338"><ele>60.39</ele><time>2026-08-31T03:42:08Z</time></trkpt><trkpt lat="59.4817276765" lon="31.0222738981"><ele>60.41</ele><time>2026-08-31T03:42:09Z</time></trkpt><trkpt lat="59.4817186240" lon="31.0222535301"><ele>60.52</ele><time>2026-08-31T03:42:10Z</time></trkpt><trkpt lat="59.4816718530" lon="31.0221699625"><ele>60.53</ele><time>2026-08-31T03:42:15Z</time></trkpt><trkpt lat="59.4816637225" lon="31.0221554618"><ele>60.55</ele><time>2026-08-31T03:42:16Z</time></trkpt><trkpt lat="59.4816565979" lon="31.0221375246"><ele>60.44</ele><time>2026-08-31T03:42:17Z</time></trkpt><trkpt lat="59.4816468749" lon="31.0221165698"><ele>60.54</ele><time>2026-08-31T03:42:18Z</time></trkpt><trkpt lat="59.4816367328" lon="31.0220941901"><ele>60.29</ele><time>2026-08-31T03:42:19Z</time></trkpt><trkpt lat="59.4816273451" lon="31.0220759176"><ele>60.45</ele><time>2026-08-31T03:42:20Z</time></trkpt><trkpt lat="59.4816135988" lon="31.0220429767"><ele>60.45</ele><time>2026-08-31T03:42:22Z</time></trkpt><trkpt lat="59.4816070609" lon="31.0220264643"><ele>60.51</ele><time>2026-08-31T03:42:23Z</time></trkpt><trkpt lat="59.4815728627" lon="31.0219257977"><ele>60.43</ele><time>2026-08-31T03:42:28Z</time></trkpt><trkpt lat="59.4814826734" lon="31.0217321757"><ele>60.29</ele><time>2026-08-31T03:42:39Z</time></trkpt><trkpt lat="59.4814716931" lon="31.0216829740"><ele>60.21</ele><time>2026-08-31T03:42:41Z</time></trkpt><trkpt lat="59.4814611319" lon="31.0216609295"><ele>60.43</ele><time>2026-08-31T03:42:42Z</time></trkpt><trkpt lat="59.4814485591" lon="31.0216448363"><ele>60.48</ele><time>2026-08-31T03:42:43Z</time></trkpt><trkpt lat="59.4814333878" lon="31.0216296650"><ele>60.46</ele><time>2026-08-31T03:42:44Z</time></trkpt><trkpt lat="59.4813975971" lon="31.0215476900"><ele>60.41</ele><time>2026-08-31T03:42:50Z</time></trkpt><trkpt lat="59.4814147800" lon="31.0215311777"><ele>60.54</ele><time>2026-08-31T03:43:15Z</time></trkpt><trkpt lat="59.4813505746" lon="31.0215903539"><ele>60.47</ele><time>2026-08-31T03:43:35Z</time></trkpt><trkpt lat="59.4813418575" lon="31.0215959698"><ele>60.12</ele><time>2026-08-31T03:43:52Z</time></trkpt><trkpt lat="59.4813347328" lon="31.0216067825"><ele>59.97</ele><time>2026-08-31T03:43:53Z</time></trkpt><trkpt lat="59.4812411908" lon="31.0216549784"><ele>60.16</ele><time>2026-08-31T03:44:02Z</time></trkpt><trkpt lat="59.4812134467" lon="31.0216677189"><ele>59.99</ele><time>2026-08-31T03:44:04Z</time></trkpt><trkpt lat="59.4811424520" lon="31.0216865782"><ele>60.09</ele><time>2026-08-31T03:44:09Z</time></trkpt><trkpt lat="59.4811020512" lon="31.0216813814"><ele>60.08</ele><time>2026-08-31T03:44:12Z</time></trkpt><trkpt lat="59.4810670987" lon="31.0216796212"><ele>60.17</ele><time>2026-08-31T03:44:15Z</time></trkpt><trkpt lat="59.4810559507" lon="31.0216749273"><ele>60.10</ele><time>2026-08-31T03:44:16Z</time></trkpt><trkpt lat="59.4810322300" lon="31.0216673836"><ele>60.17</ele><time>2026-08-31T03:44:18Z</time></trkpt><trkpt lat="59.4808711298" lon="31.0216004960"><ele>60.39</ele><time>2026-08-31T03:44:30Z</time></trkpt><trkpt lat="59.4808484986" lon="31.0215764400"><ele>60.47</ele><time>2026-08-31T03:44:51Z</time></trkpt><trkpt lat="59.4808592275" lon="31.0215914436"><ele>60.49</ele><time>2026-08-31T03:45:06Z</time></trkpt><trkpt lat="59.4808787573" lon="31.0215946287"><ele>60.21</ele><time>2026-08-31T03:45:37Z</time></trkpt><trkpt lat="59.4808904920" lon="31.0215647891"><ele>58.37</ele><time>2026-08-31T03:46:11Z</time></trkpt><trkpt lat="59.4808758236" lon="31.0215822235"><ele>59.83</ele><time>2026-08-31T03:46:43Z</time></trkpt><trkpt lat="59.4808849599" lon="31.0215823911"><ele>59.87</ele><time>2026-08-31T03:47:19Z</time></trkpt><trkpt lat="59.4808632508" lon="31.0215690639"><ele>60.32</ele><time>2026-08-31T03:47:54Z</time></trkpt></trkseg></trk></gpx>